<?xml version="1.0" encoding="UTF-8" standalone="no" ?>
<gpx xmlns="http://www.topografix.com/GPX/1/1" xmlns:xsi="http://www.w3.org/2001/XMLSchema-instance" xsi:schemaLocation="http://www.topografix.com/GPX/1/1 http://www.topografix.com/GPX/1/1/gpx.xsd" version="1.1" creator="VisuGPX - https://www.visugpx.com">
  <metadata>
    <name>Passerelle de la Gravona avec variante vers le col de vizzavone</name>
    <desc><![CDATA[Cette rando ce décompose en 2 traces: 
La première permet de rejoindre la passerelle par un chemin entièrement en sous bois. Ce chemin est caillouteux mais ne présente aucune difficulté. Une fois la passerelle  atteinte il faut soit reprendre ce même chemin soit se diriger vers la seconde trace. 
La seconde trace est ombragée sur le premier tiers puis assez ensoleillée pour la suite. La première partie est en dévers, ce qui rend la marche plus difficile (ce parcours a été fait par une enfant de 8 ans et sa grand mère de 73 ans). La deuxième trace rejoint la route principale le retour se fera le long de la T20 (route assez passante et dangereuse) si vous n'avez pas laissé de véhicule à la sorite de la forêt ( ce que nous avions fait car 2 véhicules) ]]></desc>
  </metadata>
  <wpt lat="42.09932" lon="9.10822">
    <ele>1120.2</ele>
    <type><![CDATA[vue]]></type>
  </wpt>
  <trk>
    <name><![CDATA[Aller vers la passerelle de la Gravona]]></name>
    <desc><![CDATA[Passerelle de la gravona]]></desc>
    <extensions>
      <line xmlns="http://www.topografix.com/GPX/gpx_style/0/2">
        <color>00FF00</color>
        <width>4</width>
      </line>
    </extensions>
    <trkseg>
      <trkpt lat="42.09387" lon="9.10174">
        <ele>876.099365</ele>
        <time>2021-07-05T08:34:02.835Z</time>
      </trkpt>
      <trkpt lat="42.09386" lon="9.10174">
        <ele>874.727661</ele>
        <time>2021-07-05T08:34:13.651Z</time>
      </trkpt>
      <trkpt lat="42.09366" lon="9.10194">
        <ele>890.3</ele>
        <time>2021-07-05T08:34:50.146Z</time>
      </trkpt>
      <trkpt lat="42.0936" lon="9.1021">
        <ele>892.3</ele>
        <time>2021-07-05T08:34:55.630Z</time>
      </trkpt>
      <trkpt lat="42.09355" lon="9.1022">
        <ele>893.1</ele>
        <time>2021-07-05T08:35:00.640Z</time>
      </trkpt>
      <trkpt lat="42.09358" lon="9.10232">
        <ele>894.6</ele>
        <time>2021-07-05T08:35:05.847Z</time>
      </trkpt>
      <trkpt lat="42.09354" lon="9.10241">
        <ele>895</ele>
        <time>2021-07-05T08:35:10.865Z</time>
      </trkpt>
      <trkpt lat="42.09341" lon="9.10276">
        <ele>878.955994</ele>
        <time>2021-07-05T08:37:03.545Z</time>
      </trkpt>
      <trkpt lat="42.09333" lon="9.10288">
        <ele>878.860474</ele>
        <time>2021-07-05T08:37:08.979Z</time>
      </trkpt>
      <trkpt lat="42.09325" lon="9.10294">
        <ele>878.911804</ele>
        <time>2021-07-05T08:37:14.145Z</time>
      </trkpt>
      <trkpt lat="42.09319" lon="9.10296">
        <ele>907.9</ele>
        <time>2021-07-05T08:37:20.044Z</time>
      </trkpt>
      <trkpt lat="42.09314" lon="9.10305">
        <ele>910.4</ele>
        <time>2021-07-05T08:38:15.489Z</time>
      </trkpt>
      <trkpt lat="42.0931" lon="9.10313">
        <ele>879.283447</ele>
        <time>2021-07-05T08:39:36.132Z</time>
      </trkpt>
      <trkpt lat="42.09306" lon="9.10322">
        <ele>913.7</ele>
        <time>2021-07-05T08:40:29.476Z</time>
      </trkpt>
      <trkpt lat="42.09299" lon="9.10333">
        <ele>914.8</ele>
        <time>2021-07-05T08:40:51.125Z</time>
      </trkpt>
      <trkpt lat="42.09291" lon="9.10344">
        <ele>916.1</ele>
        <time>2021-07-05T08:44:08.122Z</time>
      </trkpt>
      <trkpt lat="42.09274" lon="9.10343">
        <ele>913.4</ele>
        <time>2021-07-05T08:49:35.819Z</time>
      </trkpt>
      <trkpt lat="42.09267" lon="9.10351">
        <ele>895.113708</ele>
        <time>2021-07-05T08:49:41.133Z</time>
      </trkpt>
      <trkpt lat="42.09263" lon="9.10364">
        <ele>895.055237</ele>
        <time>2021-07-05T08:49:50.957Z</time>
      </trkpt>
      <trkpt lat="42.09265" lon="9.10389">
        <ele>918.4</ele>
        <time>2021-07-05T08:50:25.741Z</time>
      </trkpt>
      <trkpt lat="42.09254" lon="9.10415">
        <ele>906.231506</ele>
        <time>2021-07-05T08:51:07.143Z</time>
      </trkpt>
      <trkpt lat="42.09246" lon="9.10421">
        <ele>905.721436</ele>
        <time>2021-07-05T08:51:25.132Z</time>
      </trkpt>
      <trkpt lat="42.09234" lon="9.10424">
        <ele>908.012695</ele>
        <time>2021-07-05T08:51:40.636Z</time>
      </trkpt>
      <trkpt lat="42.09205" lon="9.10409">
        <ele>908.728699</ele>
        <time>2021-07-05T08:52:25.341Z</time>
      </trkpt>
      <trkpt lat="42.09184" lon="9.10399">
        <ele>908.780457</ele>
        <time>2021-07-05T08:52:45.130Z</time>
      </trkpt>
      <trkpt lat="42.09176" lon="9.10398">
        <ele>908.661072</ele>
        <time>2021-07-05T08:52:55.458Z</time>
      </trkpt>
      <trkpt lat="42.09168" lon="9.10395">
        <ele>908.440979</ele>
        <time>2021-07-05T08:53:12.081Z</time>
      </trkpt>
      <trkpt lat="42.09158" lon="9.10399">
        <ele>909.238586</ele>
        <time>2021-07-05T08:53:20.625Z</time>
      </trkpt>
      <trkpt lat="42.09148" lon="9.10403">
        <ele>903.370422</ele>
        <time>2021-07-05T08:53:33.132Z</time>
      </trkpt>
      <trkpt lat="42.09141" lon="9.10406">
        <ele>904.689697</ele>
        <time>2021-07-05T08:53:39.145Z</time>
      </trkpt>
      <trkpt lat="42.09136" lon="9.10404">
        <ele>902.673523</ele>
        <time>2021-07-05T08:53:49.953Z</time>
      </trkpt>
      <trkpt lat="42.09127" lon="9.10394">
        <ele>902.038269</ele>
        <time>2021-07-05T08:53:55.147Z</time>
      </trkpt>
      <trkpt lat="42.0912" lon="9.10388">
        <ele>909.489258</ele>
        <time>2021-07-05T08:54:00.550Z</time>
      </trkpt>
      <trkpt lat="42.09114" lon="9.10383">
        <ele>901.069824</ele>
        <time>2021-07-05T08:54:06.148Z</time>
      </trkpt>
      <trkpt lat="42.09108" lon="9.10382">
        <ele>897.762207</ele>
        <time>2021-07-05T08:54:11.539Z</time>
      </trkpt>
      <trkpt lat="42.09107" lon="9.10386">
        <ele>906.67041</ele>
        <time>2021-07-05T08:54:17.073Z</time>
      </trkpt>
      <trkpt lat="42.09103" lon="9.1039">
        <ele>902.248535</ele>
        <time>2021-07-05T08:54:25.638Z</time>
      </trkpt>
      <trkpt lat="42.09074" lon="9.10395">
        <ele>903.548584</ele>
        <time>2021-07-05T08:55:34.130Z</time>
      </trkpt>
      <trkpt lat="42.09069" lon="9.10406">
        <ele>903.986633</ele>
        <time>2021-07-05T08:55:45.134Z</time>
      </trkpt>
      <trkpt lat="42.09056" lon="9.10398">
        <ele>905.726563</ele>
        <time>2021-07-05T08:56:10.763Z</time>
      </trkpt>
      <trkpt lat="42.09047" lon="9.1038">
        <ele>904.97876</ele>
        <time>2021-07-05T08:56:17.511Z</time>
      </trkpt>
      <trkpt lat="42.09043" lon="9.10371">
        <ele>900.185547</ele>
        <time>2021-07-05T08:56:22.842Z</time>
      </trkpt>
      <trkpt lat="42.09032" lon="9.10363">
        <ele>903.47998</ele>
        <time>2021-07-05T08:56:41.134Z</time>
      </trkpt>
      <trkpt lat="42.09026" lon="9.10364">
        <ele>910.47699</ele>
        <time>2021-07-05T08:56:59.616Z</time>
      </trkpt>
      <trkpt lat="42.09044" lon="9.10403">
        <ele>913.796021</ele>
        <time>2021-07-05T08:57:55.713Z</time>
      </trkpt>
      <trkpt lat="42.0905" lon="9.10432">
        <ele>910.013123</ele>
        <time>2021-07-05T08:58:09.630Z</time>
      </trkpt>
      <trkpt lat="42.09052" lon="9.1044">
        <ele>918.600708</ele>
        <time>2021-07-05T08:58:14.904Z</time>
      </trkpt>
      <trkpt lat="42.09055" lon="9.10433">
        <ele>912.443054</ele>
        <time>2021-07-05T08:58:20.156Z</time>
      </trkpt>
      <trkpt lat="42.09056" lon="9.10428">
        <ele>918.051819</ele>
        <time>2021-07-05T08:58:25.889Z</time>
      </trkpt>
      <trkpt lat="42.09058" lon="9.10428">
        <ele>923.194275</ele>
        <time>2021-07-05T08:58:31.511Z</time>
      </trkpt>
      <trkpt lat="42.09062" lon="9.10432">
        <ele>916.279053</ele>
        <time>2021-07-05T08:58:36.641Z</time>
      </trkpt>
      <trkpt lat="42.09067" lon="9.10436">
        <ele>925.626038</ele>
        <time>2021-07-05T08:58:41.724Z</time>
      </trkpt>
      <trkpt lat="42.09071" lon="9.10452">
        <ele>977.1</ele>
        <time>2021-07-05T08:59:15.491Z</time>
      </trkpt>
      <trkpt lat="42.09075" lon="9.10456">
        <ele>977.1</ele>
        <time>2021-07-05T08:59:17.854Z</time>
      </trkpt>
      <trkpt lat="42.09067" lon="9.10458">
        <ele>939.662354</ele>
        <time>2021-07-05T08:59:21.715Z</time>
      </trkpt>
      <trkpt lat="42.09061" lon="9.10458">
        <ele>937.462036</ele>
        <time>2021-07-05T08:59:27.132Z</time>
      </trkpt>
      <trkpt lat="42.09055" lon="9.10457">
        <ele>945.163147</ele>
        <time>2021-07-05T08:59:32.152Z</time>
      </trkpt>
      <trkpt lat="42.09034" lon="9.10465">
        <ele>954.287659</ele>
        <time>2021-07-05T09:00:00.942Z</time>
      </trkpt>
      <trkpt lat="42.09025" lon="9.10464">
        <ele>957.871521</ele>
        <time>2021-07-05T09:00:07.110Z</time>
      </trkpt>
      <trkpt lat="42.09023" lon="9.10462">
        <ele>960.308044</ele>
        <time>2021-07-05T09:00:13.136Z</time>
      </trkpt>
      <trkpt lat="42.09004" lon="9.1046">
        <ele>960.67511</ele>
        <time>2021-07-05T09:00:35.053Z</time>
      </trkpt>
      <trkpt lat="42.08995" lon="9.10458">
        <ele>958.811768</ele>
        <time>2021-07-05T09:00:40.129Z</time>
      </trkpt>
      <trkpt lat="42.08989" lon="9.10456">
        <ele>958.479248</ele>
        <time>2021-07-05T09:00:45.130Z</time>
      </trkpt>
      <trkpt lat="42.08988" lon="9.10457">
        <ele>962.338074</ele>
        <time>2021-07-05T09:01:14.154Z</time>
      </trkpt>
      <trkpt lat="42.08979" lon="9.10454">
        <ele>962.971802</ele>
        <time>2021-07-05T09:02:16.117Z</time>
      </trkpt>
      <trkpt lat="42.08982" lon="9.10447">
        <ele>964.574219</ele>
        <time>2021-07-05T09:03:25.130Z</time>
      </trkpt>
      <trkpt lat="42.0897" lon="9.10447">
        <ele>967.078491</ele>
        <time>2021-07-05T09:03:35.636Z</time>
      </trkpt>
      <trkpt lat="42.08957" lon="9.10451">
        <ele>971.56604</ele>
        <time>2021-07-05T09:03:50.339Z</time>
      </trkpt>
      <trkpt lat="42.08937" lon="9.10445">
        <ele>974.452759</ele>
        <time>2021-07-05T09:04:18.126Z</time>
      </trkpt>
      <trkpt lat="42.08923" lon="9.10438">
        <ele>975.447754</ele>
        <time>2021-07-05T09:04:34.661Z</time>
      </trkpt>
      <trkpt lat="42.08894" lon="9.10431">
        <ele>977.381836</ele>
        <time>2021-07-05T09:05:05.780Z</time>
      </trkpt>
      <trkpt lat="42.08882" lon="9.10428">
        <ele>982.388916</ele>
        <time>2021-07-05T09:05:12.137Z</time>
      </trkpt>
      <trkpt lat="42.08877" lon="9.10429">
        <ele>981.829712</ele>
        <time>2021-07-05T09:05:17.554Z</time>
      </trkpt>
      <trkpt lat="42.08864" lon="9.10423">
        <ele>979.169128</ele>
        <time>2021-07-05T09:05:36.140Z</time>
      </trkpt>
      <trkpt lat="42.08855" lon="9.1041">
        <ele>977.692017</ele>
        <time>2021-07-05T09:05:43.553Z</time>
      </trkpt>
      <trkpt lat="42.08846" lon="9.10406">
        <ele>979.243652</ele>
        <time>2021-07-05T09:05:48.610Z</time>
      </trkpt>
      <trkpt lat="42.08838" lon="9.10398">
        <ele>978.402466</ele>
        <time>2021-07-05T09:05:54.134Z</time>
      </trkpt>
      <trkpt lat="42.08829" lon="9.10396">
        <ele>978.074341</ele>
        <time>2021-07-05T09:06:00.504Z</time>
      </trkpt>
      <trkpt lat="42.08823" lon="9.10394">
        <ele>978.502991</ele>
        <time>2021-07-05T09:06:05.849Z</time>
      </trkpt>
      <trkpt lat="42.08817" lon="9.10394">
        <ele>974.538147</ele>
        <time>2021-07-05T09:06:10.977Z</time>
      </trkpt>
      <trkpt lat="42.08807" lon="9.10395">
        <ele>982.650146</ele>
        <time>2021-07-05T09:06:20.559Z</time>
      </trkpt>
      <trkpt lat="42.08803" lon="9.10393">
        <ele>977.536926</ele>
        <time>2021-07-05T09:06:25.675Z</time>
      </trkpt>
      <trkpt lat="42.088" lon="9.10392">
        <ele>976.454163</ele>
        <time>2021-07-05T09:06:35.595Z</time>
      </trkpt>
      <trkpt lat="42.0878" lon="9.10393">
        <ele>976.222351</ele>
        <time>2021-07-05T09:06:50.557Z</time>
      </trkpt>
      <trkpt lat="42.08773" lon="9.10395">
        <ele>977.600098</ele>
        <time>2021-07-05T09:06:55.708Z</time>
      </trkpt>
      <trkpt lat="42.08765" lon="9.10393">
        <ele>974.983521</ele>
        <time>2021-07-05T09:07:01.661Z</time>
      </trkpt>
      <trkpt lat="42.0876" lon="9.10389">
        <ele>977.168457</ele>
        <time>2021-07-05T09:07:07.146Z</time>
      </trkpt>
      <trkpt lat="42.08752" lon="9.10386">
        <ele>977.989807</ele>
        <time>2021-07-05T09:07:12.899Z</time>
      </trkpt>
      <trkpt lat="42.08692" lon="9.10362">
        <ele>977.363831</ele>
        <time>2021-07-05T09:08:42.144Z</time>
      </trkpt>
      <trkpt lat="42.08621" lon="9.1036">
        <ele>974.676453</ele>
        <time>2021-07-05T09:10:09.141Z</time>
      </trkpt>
      <trkpt lat="42.08602" lon="9.10374">
        <ele>982.76123</ele>
        <time>2021-07-05T09:10:35.474Z</time>
      </trkpt>
      <trkpt lat="42.08568" lon="9.10391">
        <ele>981.298157</ele>
        <time>2021-07-05T09:11:23.116Z</time>
      </trkpt>
      <trkpt lat="42.0856" lon="9.10398">
        <ele>980.89624</ele>
        <time>2021-07-05T09:11:35.401Z</time>
      </trkpt>
      <trkpt lat="42.08551" lon="9.10404">
        <ele>980.1521</ele>
        <time>2021-07-05T09:11:40.500Z</time>
      </trkpt>
      <trkpt lat="42.08546" lon="9.10406">
        <ele>985.502869</ele>
        <time>2021-07-05T09:11:45.521Z</time>
      </trkpt>
      <trkpt lat="42.08504" lon="9.10407">
        <ele>994.902405</ele>
        <time>2021-07-05T09:12:40.153Z</time>
      </trkpt>
      <trkpt lat="42.08485" lon="9.10422">
        <ele>1018.253723</ele>
        <time>2021-07-05T09:18:09.139Z</time>
      </trkpt>
      <trkpt lat="42.08446" lon="9.10437">
        <ele>1016.06012</ele>
        <time>2021-07-05T09:19:21.144Z</time>
      </trkpt>
      <trkpt lat="42.08436" lon="9.10448">
        <ele>1018.348083</ele>
        <time>2021-07-05T09:19:40.511Z</time>
      </trkpt>
      <trkpt lat="42.08425" lon="9.10449">
        <ele>1019.755981</ele>
        <time>2021-07-05T09:19:45.568Z</time>
      </trkpt>
      <trkpt lat="42.08417" lon="9.10453">
        <ele>1023.140198</ele>
        <time>2021-07-05T09:19:50.664Z</time>
      </trkpt>
      <trkpt lat="42.08407" lon="9.10462">
        <ele>1023.428406</ele>
        <time>2021-07-05T09:20:16.056Z</time>
      </trkpt>
      <trkpt lat="42.0839" lon="9.1047">
        <ele>1025.744751</ele>
        <time>2021-07-05T09:20:42.051Z</time>
      </trkpt>
      <trkpt lat="42.08379" lon="9.10475">
        <ele>1027.841553</ele>
        <time>2021-07-05T09:20:56.142Z</time>
      </trkpt>
      <trkpt lat="42.0835" lon="9.10494">
        <ele>1034.695801</ele>
        <time>2021-07-05T09:21:49.795Z</time>
      </trkpt>
      <trkpt lat="42.08344" lon="9.10505">
        <ele>1036.426514</ele>
        <time>2021-07-05T09:25:06.837Z</time>
      </trkpt>
      <trkpt lat="42.08281" lon="9.10626">
        <ele>1040.168213</ele>
        <time>2021-07-05T09:28:05.455Z</time>
      </trkpt>
      <trkpt lat="42.08263" lon="9.1065">
        <ele>1041.921387</ele>
        <time>2021-07-05T09:28:35.488Z</time>
      </trkpt>
      <trkpt lat="42.08244" lon="9.10659">
        <ele>1042.020874</ele>
        <time>2021-07-05T09:29:00.912Z</time>
      </trkpt>
      <trkpt lat="42.08233" lon="9.10657">
        <ele>1044.030518</ele>
        <time>2021-07-05T09:29:13.714Z</time>
      </trkpt>
      <trkpt lat="42.08218" lon="9.10644">
        <ele>1054.925537</ele>
        <time>2021-07-05T09:29:30.358Z</time>
      </trkpt>
      <trkpt lat="42.08208" lon="9.10634">
        <ele>1048.453979</ele>
        <time>2021-07-05T09:29:36.149Z</time>
      </trkpt>
      <trkpt lat="42.08205" lon="9.10634">
        <ele>1050.233032</ele>
        <time>2021-07-05T09:30:34.551Z</time>
      </trkpt>
      <trkpt lat="42.08193" lon="9.10633">
        <ele>1053.889893</ele>
        <time>2021-07-05T09:30:39.972Z</time>
      </trkpt>
      <trkpt lat="42.08183" lon="9.10631">
        <ele>1057.80127</ele>
        <time>2021-07-05T09:30:45.144Z</time>
      </trkpt>
      <trkpt lat="42.08099" lon="9.10553">
        <ele>1087.907471</ele>
        <time>2021-07-05T09:33:53.355Z</time>
      </trkpt>
      <trkpt lat="42.08085" lon="9.10536">
        <ele>1098.2</ele>
        <time>2021-07-05T09:34:28.125Z</time>
      </trkpt>
      <trkpt lat="42.08088" lon="9.10512">
        <ele>1097.3</ele>
        <time>2021-07-05T09:35:01.450Z</time>
      </trkpt>
      <trkpt lat="42.08097" lon="9.10492">
        <ele>1096.1</ele>
        <time>2021-07-05T09:35:33.475Z</time>
      </trkpt>
      <trkpt lat="42.08106" lon="9.10478">
        <ele>1095</ele>
        <time>2021-07-05T09:35:58.835Z</time>
      </trkpt>
      <trkpt lat="42.08086" lon="9.10512">
        <ele>1097.7</ele>
        <time>2021-07-05T09:36:58.236Z</time>
      </trkpt>
      <trkpt lat="42.08082" lon="9.10538">
        <ele>1098.9</ele>
        <time>2021-07-05T09:37:34.592Z</time>
      </trkpt>
      <trkpt lat="42.08098" lon="9.10555">
        <ele>1096.9</ele>
        <time>2021-07-05T09:38:12.182Z</time>
      </trkpt>
    </trkseg>
  </trk>
  <trk>
    <name><![CDATA[retour en direction du col de vizzavona]]></name>
    <extensions>
      <line xmlns="http://www.topografix.com/GPX/gpx_style/0/2">
        <color>FF00FF</color>
        <width>4</width>
      </line>
    </extensions>
    <trkseg>
      <trkpt lat="42.08107" lon="9.1058">
        <ele>1096.9</ele>
        <time>2021-07-05T11:29:51.565Z</time>
      </trkpt>
      <trkpt lat="42.08098" lon="9.10556">
        <ele>1097</ele>
        <time>2021-07-05T11:29:58.489Z</time>
      </trkpt>
      <trkpt lat="42.08108" lon="9.10578">
        <ele>1096.8</ele>
        <time>2021-07-05T11:30:05.132Z</time>
      </trkpt>
      <trkpt lat="42.0811" lon="9.10576">
        <ele>1096.5</ele>
        <time>2021-07-05T11:30:11.135Z</time>
      </trkpt>
      <trkpt lat="42.08115" lon="9.10578">
        <ele>1096.1</ele>
        <time>2021-07-05T11:30:16.620Z</time>
      </trkpt>
      <trkpt lat="42.08119" lon="9.10583">
        <ele>1096</ele>
        <time>2021-07-05T11:30:22.120Z</time>
      </trkpt>
      <trkpt lat="42.0812" lon="9.10588">
        <ele>1096.5</ele>
        <time>2021-07-05T11:30:27.809Z</time>
      </trkpt>
      <trkpt lat="42.08124" lon="9.10591">
        <ele>1096.6</ele>
        <time>2021-07-05T11:30:33.140Z</time>
      </trkpt>
      <trkpt lat="42.08128" lon="9.10594">
        <ele>1096.7</ele>
        <time>2021-07-05T11:30:38.160Z</time>
      </trkpt>
      <trkpt lat="42.08132" lon="9.10598">
        <ele>1096.8</ele>
        <time>2021-07-05T11:30:43.648Z</time>
      </trkpt>
      <trkpt lat="42.08134" lon="9.10601">
        <ele>1097</ele>
        <time>2021-07-05T11:30:49.144Z</time>
      </trkpt>
      <trkpt lat="42.08176" lon="9.10627">
        <ele>1095.9</ele>
        <time>2021-07-05T11:32:09.831Z</time>
      </trkpt>
      <trkpt lat="42.08193" lon="9.10634">
        <ele>1095.4</ele>
        <time>2021-07-05T11:32:29.846Z</time>
      </trkpt>
      <trkpt lat="42.08196" lon="9.10637">
        <ele>1095.5</ele>
        <time>2021-07-05T11:32:35.135Z</time>
      </trkpt>
      <trkpt lat="42.08195" lon="9.1064">
        <ele>1095.9</ele>
        <time>2021-07-05T11:32:40.139Z</time>
      </trkpt>
      <trkpt lat="42.08197" lon="9.10639">
        <ele>1095.8</ele>
        <time>2021-07-05T11:32:58.810Z</time>
      </trkpt>
      <trkpt lat="42.08203" lon="9.10645">
        <ele>1096.1</ele>
        <time>2021-07-05T11:33:03.829Z</time>
      </trkpt>
      <trkpt lat="42.08207" lon="9.10647">
        <ele>1096.1</ele>
        <time>2021-07-05T11:33:09.127Z</time>
      </trkpt>
      <trkpt lat="42.08214" lon="9.10648">
        <ele>1095.8</ele>
        <time>2021-07-05T11:33:14.912Z</time>
      </trkpt>
      <trkpt lat="42.0822" lon="9.10651">
        <ele>1095.9</ele>
        <time>2021-07-05T11:33:20.165Z</time>
      </trkpt>
      <trkpt lat="42.08226" lon="9.10655">
        <ele>1096.2</ele>
        <time>2021-07-05T11:33:26.129Z</time>
      </trkpt>
      <trkpt lat="42.0823" lon="9.10657">
        <ele>1096.2</ele>
        <time>2021-07-05T11:33:31.130Z</time>
      </trkpt>
      <trkpt lat="42.08233" lon="9.10658">
        <ele>1096.2</ele>
        <time>2021-07-05T11:33:36.149Z</time>
      </trkpt>
      <trkpt lat="42.08237" lon="9.10659">
        <ele>1096.2</ele>
        <time>2021-07-05T11:33:41.981Z</time>
      </trkpt>
      <trkpt lat="42.08242" lon="9.10659">
        <ele>1095.9</ele>
        <time>2021-07-05T11:33:47.132Z</time>
      </trkpt>
      <trkpt lat="42.08247" lon="9.10657">
        <ele>1095.3</ele>
        <time>2021-07-05T11:33:52.133Z</time>
      </trkpt>
      <trkpt lat="42.08251" lon="9.10654">
        <ele>1094.7</ele>
        <time>2021-07-05T11:33:57.771Z</time>
      </trkpt>
      <trkpt lat="42.08254" lon="9.1065">
        <ele>1094.1</ele>
        <time>2021-07-05T11:34:04.884Z</time>
      </trkpt>
      <trkpt lat="42.08256" lon="9.10646">
        <ele>1093.6</ele>
        <time>2021-07-05T11:34:10.100Z</time>
      </trkpt>
      <trkpt lat="42.08268" lon="9.10629">
        <ele>1090.9</ele>
        <time>2021-07-05T11:34:34.823Z</time>
      </trkpt>
      <trkpt lat="42.08274" lon="9.10623">
        <ele>1089.8</ele>
        <time>2021-07-05T11:34:40.082Z</time>
      </trkpt>
      <trkpt lat="42.08278" lon="9.10619">
        <ele>1089.3</ele>
        <time>2021-07-05T11:34:45.138Z</time>
      </trkpt>
      <trkpt lat="42.0828" lon="9.10617">
        <ele>1088.8</ele>
        <time>2021-07-05T11:34:52.118Z</time>
      </trkpt>
      <trkpt lat="42.08279" lon="9.10614">
        <ele>1088</ele>
        <time>2021-07-05T11:35:04.878Z</time>
      </trkpt>
      <trkpt lat="42.08277" lon="9.10608">
        <ele>1086.7</ele>
        <time>2021-07-05T11:35:10.126Z</time>
      </trkpt>
      <trkpt lat="42.08278" lon="9.106">
        <ele>1085</ele>
        <time>2021-07-05T11:35:18.127Z</time>
      </trkpt>
      <trkpt lat="42.08283" lon="9.10597">
        <ele>1084.6</ele>
        <time>2021-07-05T11:35:23.134Z</time>
      </trkpt>
      <trkpt lat="42.08287" lon="9.10593">
        <ele>1083.7</ele>
        <time>2021-07-05T11:35:28.797Z</time>
      </trkpt>
      <trkpt lat="42.08291" lon="9.10589">
        <ele>1082.9</ele>
        <time>2021-07-05T11:35:34.135Z</time>
      </trkpt>
      <trkpt lat="42.08293" lon="9.10586">
        <ele>1082</ele>
        <time>2021-07-05T11:35:39.630Z</time>
      </trkpt>
      <trkpt lat="42.08295" lon="9.10581">
        <ele>1081.4</ele>
        <time>2021-07-05T11:35:45.018Z</time>
      </trkpt>
      <trkpt lat="42.08297" lon="9.10581">
        <ele>1081.3</ele>
        <time>2021-07-05T11:35:50.168Z</time>
      </trkpt>
      <trkpt lat="42.08305" lon="9.10577">
        <ele>1081</ele>
        <time>2021-07-05T11:35:59.817Z</time>
      </trkpt>
      <trkpt lat="42.0831" lon="9.10574">
        <ele>1080.7</ele>
        <time>2021-07-05T11:36:04.862Z</time>
      </trkpt>
      <trkpt lat="42.08315" lon="9.10569">
        <ele>1080</ele>
        <time>2021-07-05T11:36:11.673Z</time>
      </trkpt>
      <trkpt lat="42.0832" lon="9.10565">
        <ele>1079.5</ele>
        <time>2021-07-05T11:36:17.101Z</time>
      </trkpt>
      <trkpt lat="42.08323" lon="9.10558">
        <ele>1078.6</ele>
        <time>2021-07-05T11:36:23.011Z</time>
      </trkpt>
      <trkpt lat="42.08322" lon="9.10557">
        <ele>1078.4</ele>
        <time>2021-07-05T11:36:28.141Z</time>
      </trkpt>
      <trkpt lat="42.08321" lon="9.10552">
        <ele>1077.9</ele>
        <time>2021-07-05T11:36:34.139Z</time>
      </trkpt>
      <trkpt lat="42.08331" lon="9.10533">
        <ele>1074.9</ele>
        <time>2021-07-05T11:37:01.142Z</time>
      </trkpt>
      <trkpt lat="42.08337" lon="9.10526">
        <ele>1073.8</ele>
        <time>2021-07-05T11:37:06.770Z</time>
      </trkpt>
      <trkpt lat="42.08341" lon="9.10525">
        <ele>1073.8</ele>
        <time>2021-07-05T11:37:12.142Z</time>
      </trkpt>
      <trkpt lat="42.08342" lon="9.1052">
        <ele>1073.1</ele>
        <time>2021-07-05T11:37:17.795Z</time>
      </trkpt>
      <trkpt lat="42.08341" lon="9.10514">
        <ele>1072.2</ele>
        <time>2021-07-05T11:37:23.145Z</time>
      </trkpt>
      <trkpt lat="42.08343" lon="9.10505">
        <ele>1070.8</ele>
        <time>2021-07-05T11:37:30.133Z</time>
      </trkpt>
      <trkpt lat="42.0835" lon="9.10498">
        <ele>1069.7</ele>
        <time>2021-07-05T11:37:39.132Z</time>
      </trkpt>
      <trkpt lat="42.08353" lon="9.10491">
        <ele>1068.8</ele>
        <time>2021-07-05T11:37:44.162Z</time>
      </trkpt>
      <trkpt lat="42.08355" lon="9.10483">
        <ele>1067.6</ele>
        <time>2021-07-05T11:37:50.062Z</time>
      </trkpt>
      <trkpt lat="42.08357" lon="9.10479">
        <ele>1067.1</ele>
        <time>2021-07-05T11:37:55.133Z</time>
      </trkpt>
      <trkpt lat="42.08361" lon="9.10476">
        <ele>1066.4</ele>
        <time>2021-07-05T11:38:05.134Z</time>
      </trkpt>
      <trkpt lat="42.0838" lon="9.10467">
        <ele>1064</ele>
        <time>2021-07-05T11:38:27.569Z</time>
      </trkpt>
      <trkpt lat="42.08386" lon="9.10466">
        <ele>1063.4</ele>
        <time>2021-07-05T11:38:32.855Z</time>
      </trkpt>
      <trkpt lat="42.08399" lon="9.10459">
        <ele>1061.1</ele>
        <time>2021-07-05T11:38:49.655Z</time>
      </trkpt>
      <trkpt lat="42.08406" lon="9.10459">
        <ele>1060.6</ele>
        <time>2021-07-05T11:38:55.126Z</time>
      </trkpt>
      <trkpt lat="42.0841" lon="9.10457">
        <ele>1059.7</ele>
        <time>2021-07-05T11:39:00.142Z</time>
      </trkpt>
      <trkpt lat="42.08413" lon="9.10449">
        <ele>1057.6</ele>
        <time>2021-07-05T11:39:05.613Z</time>
      </trkpt>
      <trkpt lat="42.08416" lon="9.10442">
        <ele>1055.4</ele>
        <time>2021-07-05T11:39:11.130Z</time>
      </trkpt>
      <trkpt lat="42.0842" lon="9.10436">
        <ele>1054.3</ele>
        <time>2021-07-05T11:39:16.429Z</time>
      </trkpt>
      <trkpt lat="42.08424" lon="9.10435">
        <ele>1054.5</ele>
        <time>2021-07-05T11:39:21.633Z</time>
      </trkpt>
      <trkpt lat="42.08429" lon="9.10433">
        <ele>1054.5</ele>
        <time>2021-07-05T11:39:27.132Z</time>
      </trkpt>
      <trkpt lat="42.08435" lon="9.1043">
        <ele>1054.4</ele>
        <time>2021-07-05T11:39:32.900Z</time>
      </trkpt>
      <trkpt lat="42.08441" lon="9.10429">
        <ele>1054.7</ele>
        <time>2021-07-05T11:39:38.127Z</time>
      </trkpt>
      <trkpt lat="42.08444" lon="9.10427">
        <ele>1054.6</ele>
        <time>2021-07-05T11:39:43.148Z</time>
      </trkpt>
      <trkpt lat="42.08454" lon="9.10436">
        <ele>1058.5</ele>
        <time>2021-07-05T11:40:34.924Z</time>
      </trkpt>
      <trkpt lat="42.08466" lon="9.10434">
        <ele>1059.1</ele>
        <time>2021-07-05T11:40:41.141Z</time>
      </trkpt>
      <trkpt lat="42.08471" lon="9.10428">
        <ele>1058</ele>
        <time>2021-07-05T11:40:46.771Z</time>
      </trkpt>
      <trkpt lat="42.08474" lon="9.10426">
        <ele>1057.8</ele>
        <time>2021-07-05T11:40:52.139Z</time>
      </trkpt>
      <trkpt lat="42.08557" lon="9.10422">
        <ele>1061.5</ele>
        <time>2021-07-05T11:42:33.141Z</time>
      </trkpt>
      <trkpt lat="42.08562" lon="9.1042">
        <ele>1060.7</ele>
        <time>2021-07-05T11:42:38.173Z</time>
      </trkpt>
      <trkpt lat="42.08567" lon="9.10417">
        <ele>1059.3</ele>
        <time>2021-07-05T11:42:43.710Z</time>
      </trkpt>
      <trkpt lat="42.0857" lon="9.10415">
        <ele>1058.9</ele>
        <time>2021-07-05T11:42:48.860Z</time>
      </trkpt>
      <trkpt lat="42.08575" lon="9.10417">
        <ele>1059.8</ele>
        <time>2021-07-05T11:42:54.094Z</time>
      </trkpt>
      <trkpt lat="42.08578" lon="9.10415">
        <ele>1059.1</ele>
        <time>2021-07-05T11:42:59.143Z</time>
      </trkpt>
      <trkpt lat="42.08582" lon="9.10415">
        <ele>1059.1</ele>
        <time>2021-07-05T11:43:05.098Z</time>
      </trkpt>
      <trkpt lat="42.08585" lon="9.10415">
        <ele>1059.4</ele>
        <time>2021-07-05T11:43:10.129Z</time>
      </trkpt>
      <trkpt lat="42.08587" lon="9.10416">
        <ele>1059.6</ele>
        <time>2021-07-05T11:43:16.145Z</time>
      </trkpt>
      <trkpt lat="42.08645" lon="9.10435">
        <ele>1069</ele>
        <time>2021-07-05T11:44:39.776Z</time>
      </trkpt>
      <trkpt lat="42.08721" lon="9.10466">
        <ele>1071</ele>
        <time>2021-07-05T11:47:02.169Z</time>
      </trkpt>
      <trkpt lat="42.08738" lon="9.10478">
        <ele>1072</ele>
        <time>2021-07-05T11:47:29.131Z</time>
      </trkpt>
      <trkpt lat="42.08743" lon="9.10486">
        <ele>1075</ele>
        <time>2021-07-05T11:47:39.830Z</time>
      </trkpt>
      <trkpt lat="42.08749" lon="9.1049">
        <ele>1075.4</ele>
        <time>2021-07-05T11:47:45.132Z</time>
      </trkpt>
      <trkpt lat="42.08753" lon="9.10489">
        <ele>1073.4</ele>
        <time>2021-07-05T11:47:55.132Z</time>
      </trkpt>
      <trkpt lat="42.08766" lon="9.10501">
        <ele>1076.1</ele>
        <time>2021-07-05T11:48:30.140Z</time>
      </trkpt>
      <trkpt lat="42.08775" lon="9.10497">
        <ele>1071.2</ele>
        <time>2021-07-05T11:49:54.891Z</time>
      </trkpt>
      <trkpt lat="42.08776" lon="9.10499">
        <ele>1071.8</ele>
        <time>2021-07-05T11:50:02.145Z</time>
      </trkpt>
      <trkpt lat="42.08829" lon="9.10546">
        <ele>1080.3</ele>
        <time>2021-07-05T11:51:50.154Z</time>
      </trkpt>
      <trkpt lat="42.08832" lon="9.10546">
        <ele>1079</ele>
        <time>2021-07-05T11:51:57.134Z</time>
      </trkpt>
      <trkpt lat="42.08833" lon="9.10548">
        <ele>1079.7</ele>
        <time>2021-07-05T11:52:02.145Z</time>
      </trkpt>
      <trkpt lat="42.08844" lon="9.10559">
        <ele>1081.8</ele>
        <time>2021-07-05T11:52:23.671Z</time>
      </trkpt>
      <trkpt lat="42.08848" lon="9.10565">
        <ele>1083.2</ele>
        <time>2021-07-05T11:52:29.127Z</time>
      </trkpt>
      <trkpt lat="42.08851" lon="9.10567">
        <ele>1083</ele>
        <time>2021-07-05T11:52:34.773Z</time>
      </trkpt>
      <trkpt lat="42.0887" lon="9.10574">
        <ele>1079.6</ele>
        <time>2021-07-05T11:52:54.889Z</time>
      </trkpt>
      <trkpt lat="42.08877" lon="9.10581">
        <ele>1080.2</ele>
        <time>2021-07-05T11:53:01.125Z</time>
      </trkpt>
      <trkpt lat="42.08896" lon="9.106">
        <ele>1076</ele>
        <time>2021-07-05T11:53:40.120Z</time>
      </trkpt>
      <trkpt lat="42.08898" lon="9.10606">
        <ele>1075.4</ele>
        <time>2021-07-05T11:53:45.133Z</time>
      </trkpt>
      <trkpt lat="42.089" lon="9.10611">
        <ele>1075.3</ele>
        <time>2021-07-05T11:53:50.167Z</time>
      </trkpt>
      <trkpt lat="42.08869" lon="9.10704">
        <ele>1087.5</ele>
        <time>2021-07-05T11:55:45.117Z</time>
      </trkpt>
      <trkpt lat="42.08852" lon="9.10751">
        <ele>1085.9</ele>
        <time>2021-07-05T11:56:44.793Z</time>
      </trkpt>
      <trkpt lat="42.08852" lon="9.10758">
        <ele>1084</ele>
        <time>2021-07-05T11:56:51.457Z</time>
      </trkpt>
      <trkpt lat="42.08851" lon="9.10763">
        <ele>1083.3</ele>
        <time>2021-07-05T11:56:59.876Z</time>
      </trkpt>
      <trkpt lat="42.08851" lon="9.10769">
        <ele>1081.5</ele>
        <time>2021-07-05T11:57:04.884Z</time>
      </trkpt>
      <trkpt lat="42.08848" lon="9.10777">
        <ele>1080</ele>
        <time>2021-07-05T11:57:12.889Z</time>
      </trkpt>
      <trkpt lat="42.08846" lon="9.10782">
        <ele>1079.9</ele>
        <time>2021-07-05T11:57:18.047Z</time>
      </trkpt>
      <trkpt lat="42.08845" lon="9.10786">
        <ele>1079</ele>
        <time>2021-07-05T11:57:23.112Z</time>
      </trkpt>
      <trkpt lat="42.08845" lon="9.10794">
        <ele>1076.7</ele>
        <time>2021-07-05T11:57:28.121Z</time>
      </trkpt>
      <trkpt lat="42.08843" lon="9.10796">
        <ele>1076.8</ele>
        <time>2021-07-05T11:57:33.668Z</time>
      </trkpt>
      <trkpt lat="42.08838" lon="9.10798">
        <ele>1078.3</ele>
        <time>2021-07-05T11:57:38.749Z</time>
      </trkpt>
      <trkpt lat="42.08836" lon="9.108">
        <ele>1078.5</ele>
        <time>2021-07-05T11:57:44.169Z</time>
      </trkpt>
      <trkpt lat="42.0878" lon="9.1088">
        <ele>1089.5</ele>
        <time>2021-07-05T11:59:33.129Z</time>
      </trkpt>
      <trkpt lat="42.08786" lon="9.10887">
        <ele>1086</ele>
        <time>2021-07-05T11:59:43.134Z</time>
      </trkpt>
      <trkpt lat="42.0879" lon="9.1089">
        <ele>1083.5</ele>
        <time>2021-07-05T11:59:54.148Z</time>
      </trkpt>
      <trkpt lat="42.08793" lon="9.10898">
        <ele>1080.4</ele>
        <time>2021-07-05T12:00:04.591Z</time>
      </trkpt>
      <trkpt lat="42.08796" lon="9.10904">
        <ele>1078.3</ele>
        <time>2021-07-05T12:00:09.804Z</time>
      </trkpt>
      <trkpt lat="42.08798" lon="9.10911">
        <ele>1076.5</ele>
        <time>2021-07-05T12:00:14.837Z</time>
      </trkpt>
      <trkpt lat="42.08798" lon="9.10918">
        <ele>1075.7</ele>
        <time>2021-07-05T12:00:20.139Z</time>
      </trkpt>
      <trkpt lat="42.08797" lon="9.10924">
        <ele>1076.3</ele>
        <time>2021-07-05T12:00:30.137Z</time>
      </trkpt>
      <trkpt lat="42.08798" lon="9.10927">
        <ele>1076</ele>
        <time>2021-07-05T12:00:35.138Z</time>
      </trkpt>
      <trkpt lat="42.08798" lon="9.10931">
        <ele>1075.6</ele>
        <time>2021-07-05T12:00:42.139Z</time>
      </trkpt>
      <trkpt lat="42.08801" lon="9.10933">
        <ele>1074.4</ele>
        <time>2021-07-05T12:00:47.261Z</time>
      </trkpt>
      <trkpt lat="42.08805" lon="9.10935">
        <ele>1072.5</ele>
        <time>2021-07-05T12:00:53.137Z</time>
      </trkpt>
      <trkpt lat="42.08807" lon="9.10937">
        <ele>1071.5</ele>
        <time>2021-07-05T12:00:58.662Z</time>
      </trkpt>
      <trkpt lat="42.0881" lon="9.10942">
        <ele>1069.8</ele>
        <time>2021-07-05T12:01:04.080Z</time>
      </trkpt>
      <trkpt lat="42.08813" lon="9.10947">
        <ele>1068.8</ele>
        <time>2021-07-05T12:01:09.134Z</time>
      </trkpt>
      <trkpt lat="42.08814" lon="9.10949">
        <ele>1068.3</ele>
        <time>2021-07-05T12:01:15.133Z</time>
      </trkpt>
      <trkpt lat="42.08813" lon="9.10948">
        <ele>1068.9</ele>
        <time>2021-07-05T12:01:20.140Z</time>
      </trkpt>
      <trkpt lat="42.08814" lon="9.10952">
        <ele>1068.4</ele>
        <time>2021-07-05T12:01:39.014Z</time>
      </trkpt>
      <trkpt lat="42.08815" lon="9.10956">
        <ele>1068.2</ele>
        <time>2021-07-05T12:01:44.132Z</time>
      </trkpt>
      <trkpt lat="42.08814" lon="9.10961">
        <ele>1068.6</ele>
        <time>2021-07-05T12:01:49.139Z</time>
      </trkpt>
      <trkpt lat="42.08822" lon="9.10978">
        <ele>1065.7</ele>
        <time>2021-07-05T12:02:40.147Z</time>
      </trkpt>
      <trkpt lat="42.08824" lon="9.10978">
        <ele>1064.9</ele>
        <time>2021-07-05T12:02:46.143Z</time>
      </trkpt>
      <trkpt lat="42.08819" lon="9.10978">
        <ele>1066.9</ele>
        <time>2021-07-05T12:03:01.148Z</time>
      </trkpt>
      <trkpt lat="42.08811" lon="9.10979">
        <ele>1070.6</ele>
        <time>2021-07-05T12:03:10.141Z</time>
      </trkpt>
      <trkpt lat="42.08807" lon="9.10977">
        <ele>1072.2</ele>
        <time>2021-07-05T12:03:51.136Z</time>
      </trkpt>
      <trkpt lat="42.08811" lon="9.1098">
        <ele>1070.8</ele>
        <time>2021-07-05T12:04:24.994Z</time>
      </trkpt>
      <trkpt lat="42.08817" lon="9.10985">
        <ele>1068.2</ele>
        <time>2021-07-05T12:05:04.152Z</time>
      </trkpt>
      <trkpt lat="42.08815" lon="9.10985">
        <ele>1069.2</ele>
        <time>2021-07-05T12:05:38.151Z</time>
      </trkpt>
      <trkpt lat="42.08813" lon="9.10978">
        <ele>1069.7</ele>
        <time>2021-07-05T12:05:44.150Z</time>
      </trkpt>
      <trkpt lat="42.08814" lon="9.1098">
        <ele>1069.3</ele>
        <time>2021-07-05T12:06:00.736Z</time>
      </trkpt>
      <trkpt lat="42.08816" lon="9.10984">
        <ele>1068.3</ele>
        <time>2021-07-05T12:06:06.144Z</time>
      </trkpt>
      <trkpt lat="42.08818" lon="9.10986">
        <ele>1067.6</ele>
        <time>2021-07-05T12:06:11.755Z</time>
      </trkpt>
      <trkpt lat="42.08828" lon="9.10992">
        <ele>1063.9</ele>
        <time>2021-07-05T12:06:27.995Z</time>
      </trkpt>
      <trkpt lat="42.08842" lon="9.11">
        <ele>1059.3</ele>
        <time>2021-07-05T12:06:50.143Z</time>
      </trkpt>
      <trkpt lat="42.08842" lon="9.11004">
        <ele>1059.6</ele>
        <time>2021-07-05T12:06:55.644Z</time>
      </trkpt>
      <trkpt lat="42.08842" lon="9.11013">
        <ele>1059.9</ele>
        <time>2021-07-05T12:07:04.796Z</time>
      </trkpt>
      <trkpt lat="42.08845" lon="9.11015">
        <ele>1059.3</ele>
        <time>2021-07-05T12:07:10.080Z</time>
      </trkpt>
      <trkpt lat="42.08851" lon="9.1104">
        <ele>1058.8</ele>
        <time>2021-07-05T12:07:43.972Z</time>
      </trkpt>
      <trkpt lat="42.0883" lon="9.11113">
        <ele>1069.3</ele>
        <time>2021-07-05T12:10:13.604Z</time>
      </trkpt>
      <trkpt lat="42.08829" lon="9.11123">
        <ele>1070.3</ele>
        <time>2021-07-05T12:10:25.138Z</time>
      </trkpt>
      <trkpt lat="42.08892" lon="9.11129">
        <ele>1059</ele>
        <time>2021-07-05T12:11:24.116Z</time>
      </trkpt>
      <trkpt lat="42.08897" lon="9.1113">
        <ele>1058.3</ele>
        <time>2021-07-05T12:11:29.134Z</time>
      </trkpt>
      <trkpt lat="42.08899" lon="9.11129">
        <ele>1057.5</ele>
        <time>2021-07-05T12:11:34.702Z</time>
      </trkpt>
      <trkpt lat="42.089" lon="9.11136">
        <ele>1058.8</ele>
        <time>2021-07-05T12:16:05.126Z</time>
      </trkpt>
      <trkpt lat="42.08913" lon="9.11142">
        <ele>1058.4</ele>
        <time>2021-07-05T12:16:24.819Z</time>
      </trkpt>
      <trkpt lat="42.08914" lon="9.11144">
        <ele>1058.8</ele>
        <time>2021-07-05T12:16:29.949Z</time>
      </trkpt>
      <trkpt lat="42.08915" lon="9.11142">
        <ele>1058</ele>
        <time>2021-07-05T12:17:08.134Z</time>
      </trkpt>
      <trkpt lat="42.08919" lon="9.11144">
        <ele>1058.6</ele>
        <time>2021-07-05T12:17:14.162Z</time>
      </trkpt>
      <trkpt lat="42.08924" lon="9.11145">
        <ele>1059.4</ele>
        <time>2021-07-05T12:17:45.118Z</time>
      </trkpt>
      <trkpt lat="42.08929" lon="9.11146">
        <ele>1060.3</ele>
        <time>2021-07-05T12:18:14.070Z</time>
      </trkpt>
      <trkpt lat="42.08933" lon="9.11146">
        <ele>1061</ele>
        <time>2021-07-05T12:18:20.161Z</time>
      </trkpt>
      <trkpt lat="42.0895" lon="9.1114">
        <ele>1061.4</ele>
        <time>2021-07-05T12:19:09.849Z</time>
      </trkpt>
      <trkpt lat="42.0895" lon="9.11135">
        <ele>1060.1</ele>
        <time>2021-07-05T12:19:15.114Z</time>
      </trkpt>
      <trkpt lat="42.08952" lon="9.11131">
        <ele>1059.3</ele>
        <time>2021-07-05T12:19:20.165Z</time>
      </trkpt>
      <trkpt lat="42.08955" lon="9.11125">
        <ele>1057.9</ele>
        <time>2021-07-05T12:19:27.137Z</time>
      </trkpt>
      <trkpt lat="42.08957" lon="9.11124">
        <ele>1057.7</ele>
        <time>2021-07-05T12:19:32.165Z</time>
      </trkpt>
      <trkpt lat="42.08961" lon="9.11116">
        <ele>1055.9</ele>
        <time>2021-07-05T12:19:43.873Z</time>
      </trkpt>
      <trkpt lat="42.08962" lon="9.1111">
        <ele>1054.5</ele>
        <time>2021-07-05T12:19:49.133Z</time>
      </trkpt>
      <trkpt lat="42.08965" lon="9.11107">
        <ele>1053.8</ele>
        <time>2021-07-05T12:19:54.669Z</time>
      </trkpt>
      <trkpt lat="42.08971" lon="9.11106">
        <ele>1054.3</ele>
        <time>2021-07-05T12:20:05.125Z</time>
      </trkpt>
      <trkpt lat="42.08976" lon="9.11107">
        <ele>1054.9</ele>
        <time>2021-07-05T12:20:10.870Z</time>
      </trkpt>
      <trkpt lat="42.08977" lon="9.11108">
        <ele>1055.3</ele>
        <time>2021-07-05T12:20:16.557Z</time>
      </trkpt>
      <trkpt lat="42.08978" lon="9.11109">
        <ele>1055.7</ele>
        <time>2021-07-05T12:20:21.968Z</time>
      </trkpt>
      <trkpt lat="42.08997" lon="9.11117">
        <ele>1060.1</ele>
        <time>2021-07-05T12:20:43.989Z</time>
      </trkpt>
      <trkpt lat="42.09003" lon="9.11119">
        <ele>1061.8</ele>
        <time>2021-07-05T12:20:49.127Z</time>
      </trkpt>
      <trkpt lat="42.09007" lon="9.11121">
        <ele>1063.7</ele>
        <time>2021-07-05T12:20:54.911Z</time>
      </trkpt>
      <trkpt lat="42.09009" lon="9.11123">
        <ele>1065</ele>
        <time>2021-07-05T12:21:00.129Z</time>
      </trkpt>
      <trkpt lat="42.09013" lon="9.11125">
        <ele>1067</ele>
        <time>2021-07-05T12:21:09.883Z</time>
      </trkpt>
      <trkpt lat="42.09015" lon="9.11127">
        <ele>1068.1</ele>
        <time>2021-07-05T12:21:15.128Z</time>
      </trkpt>
      <trkpt lat="42.09021" lon="9.11127">
        <ele>1069.9</ele>
        <time>2021-07-05T12:21:20.434Z</time>
      </trkpt>
      <trkpt lat="42.09026" lon="9.11128">
        <ele>1071.8</ele>
        <time>2021-07-05T12:21:25.716Z</time>
      </trkpt>
      <trkpt lat="42.09029" lon="9.11125">
        <ele>1071.6</ele>
        <time>2021-07-05T12:21:31.121Z</time>
      </trkpt>
      <trkpt lat="42.09032" lon="9.11123">
        <ele>1071.9</ele>
        <time>2021-07-05T12:21:36.133Z</time>
      </trkpt>
      <trkpt lat="42.09036" lon="9.11118">
        <ele>1071.5</ele>
        <time>2021-07-05T12:21:42.120Z</time>
      </trkpt>
      <trkpt lat="42.09039" lon="9.11117">
        <ele>1071.6</ele>
        <time>2021-07-05T12:21:47.136Z</time>
      </trkpt>
      <trkpt lat="42.09038" lon="9.11115">
        <ele>1070.7</ele>
        <time>2021-07-05T12:21:52.137Z</time>
      </trkpt>
      <trkpt lat="42.09039" lon="9.11115">
        <ele>1071</ele>
        <time>2021-07-05T12:22:06.405Z</time>
      </trkpt>
      <trkpt lat="42.09043" lon="9.11114">
        <ele>1071.8</ele>
        <time>2021-07-05T12:22:12.138Z</time>
      </trkpt>
      <trkpt lat="42.09047" lon="9.1111">
        <ele>1071.3</ele>
        <time>2021-07-05T12:22:17.349Z</time>
      </trkpt>
      <trkpt lat="42.09048" lon="9.11107">
        <ele>1070.5</ele>
        <time>2021-07-05T12:22:22.374Z</time>
      </trkpt>
      <trkpt lat="42.0905" lon="9.11104">
        <ele>1069.8</ele>
        <time>2021-07-05T12:22:28.078Z</time>
      </trkpt>
      <trkpt lat="42.09061" lon="9.11097">
        <ele>1070.1</ele>
        <time>2021-07-05T12:22:49.143Z</time>
      </trkpt>
      <trkpt lat="42.09065" lon="9.11095">
        <ele>1070.3</ele>
        <time>2021-07-05T12:22:54.647Z</time>
      </trkpt>
      <trkpt lat="42.09067" lon="9.11095">
        <ele>1070.9</ele>
        <time>2021-07-05T12:22:59.997Z</time>
      </trkpt>
      <trkpt lat="42.0907" lon="9.11093">
        <ele>1070.6</ele>
        <time>2021-07-05T12:23:05.046Z</time>
      </trkpt>
      <trkpt lat="42.09073" lon="9.11089">
        <ele>1070</ele>
        <time>2021-07-05T12:23:10.135Z</time>
      </trkpt>
      <trkpt lat="42.09075" lon="9.11087">
        <ele>1069.2</ele>
        <time>2021-07-05T12:23:15.880Z</time>
      </trkpt>
      <trkpt lat="42.09077" lon="9.11085">
        <ele>1069.1</ele>
        <time>2021-07-05T12:23:21.137Z</time>
      </trkpt>
      <trkpt lat="42.09082" lon="9.11084">
        <ele>1069.7</ele>
        <time>2021-07-05T12:23:27.134Z</time>
      </trkpt>
      <trkpt lat="42.09087" lon="9.1108">
        <ele>1069.8</ele>
        <time>2021-07-05T12:23:32.672Z</time>
      </trkpt>
      <trkpt lat="42.0909" lon="9.11076">
        <ele>1069.3</ele>
        <time>2021-07-05T12:23:37.889Z</time>
      </trkpt>
      <trkpt lat="42.09093" lon="9.11071">
        <ele>1068.7</ele>
        <time>2021-07-05T12:23:43.138Z</time>
      </trkpt>
      <trkpt lat="42.09096" lon="9.11064">
        <ele>1066.8</ele>
        <time>2021-07-05T12:23:48.853Z</time>
      </trkpt>
      <trkpt lat="42.091" lon="9.11058">
        <ele>1065.9</ele>
        <time>2021-07-05T12:23:55.122Z</time>
      </trkpt>
      <trkpt lat="42.09105" lon="9.11046">
        <ele>1062.8</ele>
        <time>2021-07-05T12:24:09.141Z</time>
      </trkpt>
      <trkpt lat="42.09109" lon="9.1104">
        <ele>1062.1</ele>
        <time>2021-07-05T12:24:14.159Z</time>
      </trkpt>
      <trkpt lat="42.09116" lon="9.11032">
        <ele>1061</ele>
        <time>2021-07-05T12:24:24.860Z</time>
      </trkpt>
      <trkpt lat="42.09119" lon="9.11027">
        <ele>1060</ele>
        <time>2021-07-05T12:24:30.133Z</time>
      </trkpt>
      <trkpt lat="42.09123" lon="9.11025">
        <ele>1060.3</ele>
        <time>2021-07-05T12:24:36.144Z</time>
      </trkpt>
      <trkpt lat="42.09129" lon="9.11021">
        <ele>1060.8</ele>
        <time>2021-07-05T12:24:42.127Z</time>
      </trkpt>
      <trkpt lat="42.09136" lon="9.11013">
        <ele>1059.9</ele>
        <time>2021-07-05T12:24:47.610Z</time>
      </trkpt>
      <trkpt lat="42.09139" lon="9.11007">
        <ele>1058.4</ele>
        <time>2021-07-05T12:24:52.665Z</time>
      </trkpt>
      <trkpt lat="42.09144" lon="9.11005">
        <ele>1058.8</ele>
        <time>2021-07-05T12:24:57.977Z</time>
      </trkpt>
      <trkpt lat="42.09146" lon="9.11002">
        <ele>1058.7</ele>
        <time>2021-07-05T12:25:03.130Z</time>
      </trkpt>
      <trkpt lat="42.0915" lon="9.10999">
        <ele>1058.5</ele>
        <time>2021-07-05T12:25:08.150Z</time>
      </trkpt>
      <trkpt lat="42.09154" lon="9.10997">
        <ele>1059.2</ele>
        <time>2021-07-05T12:25:14.165Z</time>
      </trkpt>
      <trkpt lat="42.09172" lon="9.10987">
        <ele>1060.4</ele>
        <time>2021-07-05T12:26:10.139Z</time>
      </trkpt>
      <trkpt lat="42.09173" lon="9.10987">
        <ele>1060.8</ele>
        <time>2021-07-05T12:26:28.126Z</time>
      </trkpt>
      <trkpt lat="42.09175" lon="9.10991">
        <ele>1062.2</ele>
        <time>2021-07-05T12:26:33.560Z</time>
      </trkpt>
      <trkpt lat="42.09178" lon="9.10995">
        <ele>1063.9</ele>
        <time>2021-07-05T12:26:38.661Z</time>
      </trkpt>
      <trkpt lat="42.09197" lon="9.11018">
        <ele>1075</ele>
        <time>2021-07-05T12:27:15.015Z</time>
      </trkpt>
      <trkpt lat="42.092" lon="9.11021">
        <ele>1076.7</ele>
        <time>2021-07-05T12:27:20.166Z</time>
      </trkpt>
      <trkpt lat="42.09214" lon="9.11027">
        <ele>1080.6</ele>
        <time>2021-07-05T12:27:39.842Z</time>
      </trkpt>
      <trkpt lat="42.09216" lon="9.11027">
        <ele>1080.9</ele>
        <time>2021-07-05T12:27:45.133Z</time>
      </trkpt>
      <trkpt lat="42.09226" lon="9.11032">
        <ele>1084.1</ele>
        <time>2021-07-05T12:28:05.136Z</time>
      </trkpt>
      <trkpt lat="42.09237" lon="9.11035">
        <ele>1086.2</ele>
        <time>2021-07-05T12:28:19.661Z</time>
      </trkpt>
      <trkpt lat="42.09242" lon="9.11031">
        <ele>1085.6</ele>
        <time>2021-07-05T12:28:30.131Z</time>
      </trkpt>
      <trkpt lat="42.09243" lon="9.11031">
        <ele>1085.5</ele>
        <time>2021-07-05T12:28:37.139Z</time>
      </trkpt>
      <trkpt lat="42.09241" lon="9.11033">
        <ele>1086.3</ele>
        <time>2021-07-05T12:28:59.105Z</time>
      </trkpt>
      <trkpt lat="42.09244" lon="9.11028">
        <ele>1084.7</ele>
        <time>2021-07-05T12:29:04.149Z</time>
      </trkpt>
      <trkpt lat="42.09247" lon="9.11022">
        <ele>1082.9</ele>
        <time>2021-07-05T12:29:10.129Z</time>
      </trkpt>
      <trkpt lat="42.0925" lon="9.11022">
        <ele>1083.2</ele>
        <time>2021-07-05T12:29:15.968Z</time>
      </trkpt>
      <trkpt lat="42.09254" lon="9.11017">
        <ele>1083.2</ele>
        <time>2021-07-05T12:29:21.130Z</time>
      </trkpt>
      <trkpt lat="42.09261" lon="9.11016">
        <ele>1086.1</ele>
        <time>2021-07-05T12:29:30.117Z</time>
      </trkpt>
      <trkpt lat="42.09265" lon="9.1101">
        <ele>1085.8</ele>
        <time>2021-07-05T12:29:42.087Z</time>
      </trkpt>
      <trkpt lat="42.09263" lon="9.11006">
        <ele>1083.3</ele>
        <time>2021-07-05T12:29:47.135Z</time>
      </trkpt>
      <trkpt lat="42.09265" lon="9.11003">
        <ele>1083</ele>
        <time>2021-07-05T12:29:55.092Z</time>
      </trkpt>
      <trkpt lat="42.09272" lon="9.10997">
        <ele>1084.5</ele>
        <time>2021-07-05T12:30:03.902Z</time>
      </trkpt>
      <trkpt lat="42.09276" lon="9.10994">
        <ele>1085.3</ele>
        <time>2021-07-05T12:30:09.127Z</time>
      </trkpt>
      <trkpt lat="42.09277" lon="9.1099">
        <ele>1084.5</ele>
        <time>2021-07-05T12:30:14.159Z</time>
      </trkpt>
      <trkpt lat="42.0928" lon="9.10985">
        <ele>1084</ele>
        <time>2021-07-05T12:30:19.595Z</time>
      </trkpt>
      <trkpt lat="42.09286" lon="9.10983">
        <ele>1086.3</ele>
        <time>2021-07-05T12:30:30.130Z</time>
      </trkpt>
      <trkpt lat="42.09286" lon="9.10978">
        <ele>1084.8</ele>
        <time>2021-07-05T12:30:53.135Z</time>
      </trkpt>
      <trkpt lat="42.0929" lon="9.10977">
        <ele>1086.5</ele>
        <time>2021-07-05T12:30:58.330Z</time>
      </trkpt>
      <trkpt lat="42.09296" lon="9.10976">
        <ele>1088.7</ele>
        <time>2021-07-05T12:31:03.465Z</time>
      </trkpt>
      <trkpt lat="42.09299" lon="9.1097">
        <ele>1088.3</ele>
        <time>2021-07-05T12:31:08.968Z</time>
      </trkpt>
      <trkpt lat="42.093" lon="9.10966">
        <ele>1087.3</ele>
        <time>2021-07-05T12:31:14.165Z</time>
      </trkpt>
      <trkpt lat="42.09303" lon="9.10959">
        <ele>1086.8</ele>
        <time>2021-07-05T12:31:19.825Z</time>
      </trkpt>
      <trkpt lat="42.09314" lon="9.10948">
        <ele>1087.9</ele>
        <time>2021-07-05T12:31:35.132Z</time>
      </trkpt>
      <trkpt lat="42.09323" lon="9.10945">
        <ele>1091.4</ele>
        <time>2021-07-05T12:31:50.054Z</time>
      </trkpt>
      <trkpt lat="42.09332" lon="9.10937">
        <ele>1092.8</ele>
        <time>2021-07-05T12:32:05.125Z</time>
      </trkpt>
      <trkpt lat="42.09336" lon="9.10935">
        <ele>1094.1</ele>
        <time>2021-07-05T12:32:10.140Z</time>
      </trkpt>
      <trkpt lat="42.09342" lon="9.10927">
        <ele>1094.7</ele>
        <time>2021-07-05T12:32:20.170Z</time>
      </trkpt>
      <trkpt lat="42.09347" lon="9.10922">
        <ele>1096.1</ele>
        <time>2021-07-05T12:32:35.128Z</time>
      </trkpt>
      <trkpt lat="42.09354" lon="9.10911">
        <ele>1096.9</ele>
        <time>2021-07-05T12:32:50.891Z</time>
      </trkpt>
      <trkpt lat="42.09355" lon="9.10907">
        <ele>1096.7</ele>
        <time>2021-07-05T12:32:55.998Z</time>
      </trkpt>
      <trkpt lat="42.09353" lon="9.10886">
        <ele>1092</ele>
        <time>2021-07-05T12:33:17.817Z</time>
      </trkpt>
      <trkpt lat="42.09353" lon="9.10881">
        <ele>1091.2</ele>
        <time>2021-07-05T12:33:23.022Z</time>
      </trkpt>
      <trkpt lat="42.09355" lon="9.10878">
        <ele>1091.5</ele>
        <time>2021-07-05T12:33:28.133Z</time>
      </trkpt>
      <trkpt lat="42.09354" lon="9.10876">
        <ele>1090.6</ele>
        <time>2021-07-05T12:33:33.137Z</time>
      </trkpt>
      <trkpt lat="42.09357" lon="9.10872">
        <ele>1091.4</ele>
        <time>2021-07-05T12:34:38.182Z</time>
      </trkpt>
      <trkpt lat="42.09356" lon="9.10872">
        <ele>1090.8</ele>
        <time>2021-07-05T12:37:55.019Z</time>
      </trkpt>
      <trkpt lat="42.09356" lon="9.10857">
        <ele>1088.2</ele>
        <time>2021-07-05T12:39:21.817Z</time>
      </trkpt>
      <trkpt lat="42.09361" lon="9.1085">
        <ele>1089.9</ele>
        <time>2021-07-05T12:39:30.107Z</time>
      </trkpt>
      <trkpt lat="42.09365" lon="9.10847">
        <ele>1091.6</ele>
        <time>2021-07-05T12:39:35.146Z</time>
      </trkpt>
      <trkpt lat="42.0938" lon="9.10828">
        <ele>1095.4</ele>
        <time>2021-07-05T12:40:14.975Z</time>
      </trkpt>
      <trkpt lat="42.09385" lon="9.10816">
        <ele>1094.7</ele>
        <time>2021-07-05T12:40:26.809Z</time>
      </trkpt>
      <trkpt lat="42.09389" lon="9.10813">
        <ele>1096</ele>
        <time>2021-07-05T12:40:32.128Z</time>
      </trkpt>
      <trkpt lat="42.09389" lon="9.10809">
        <ele>1094.4</ele>
        <time>2021-07-05T12:40:37.138Z</time>
      </trkpt>
      <trkpt lat="42.0939" lon="9.10809">
        <ele>1095</ele>
        <time>2021-07-05T12:40:42.143Z</time>
      </trkpt>
      <trkpt lat="42.09396" lon="9.10806">
        <ele>1097.5</ele>
        <time>2021-07-05T12:40:53.632Z</time>
      </trkpt>
      <trkpt lat="42.09406" lon="9.10798">
        <ele>1100</ele>
        <time>2021-07-05T12:41:04.832Z</time>
      </trkpt>
      <trkpt lat="42.09409" lon="9.10793">
        <ele>1100.3</ele>
        <time>2021-07-05T12:41:10.034Z</time>
      </trkpt>
      <trkpt lat="42.09411" lon="9.10789">
        <ele>1099.8</ele>
        <time>2021-07-05T12:41:15.131Z</time>
      </trkpt>
      <trkpt lat="42.09418" lon="9.10781">
        <ele>1100.5</ele>
        <time>2021-07-05T12:41:31.752Z</time>
      </trkpt>
      <trkpt lat="42.09434" lon="9.10763">
        <ele>1099.8</ele>
        <time>2021-07-05T12:41:57.971Z</time>
      </trkpt>
      <trkpt lat="42.09441" lon="9.10758">
        <ele>1100.8</ele>
        <time>2021-07-05T12:42:05.090Z</time>
      </trkpt>
      <trkpt lat="42.0945" lon="9.1075">
        <ele>1101.5</ele>
        <time>2021-07-05T12:42:13.492Z</time>
      </trkpt>
      <trkpt lat="42.09454" lon="9.10746">
        <ele>1101.4</ele>
        <time>2021-07-05T12:42:18.529Z</time>
      </trkpt>
      <trkpt lat="42.09458" lon="9.10744">
        <ele>1102.2</ele>
        <time>2021-07-05T12:42:23.730Z</time>
      </trkpt>
      <trkpt lat="42.09464" lon="9.10739">
        <ele>1102.8</ele>
        <time>2021-07-05T12:42:29.130Z</time>
      </trkpt>
      <trkpt lat="42.09469" lon="9.10734">
        <ele>1103.2</ele>
        <time>2021-07-05T12:42:34.612Z</time>
      </trkpt>
      <trkpt lat="42.09474" lon="9.10728">
        <ele>1102.7</ele>
        <time>2021-07-05T12:42:40.129Z</time>
      </trkpt>
      <trkpt lat="42.09481" lon="9.10724">
        <ele>1103.8</ele>
        <time>2021-07-05T12:42:45.480Z</time>
      </trkpt>
      <trkpt lat="42.09487" lon="9.10723">
        <ele>1105.7</ele>
        <time>2021-07-05T12:42:52.022Z</time>
      </trkpt>
      <trkpt lat="42.09485" lon="9.1072">
        <ele>1103.9</ele>
        <time>2021-07-05T12:43:00.129Z</time>
      </trkpt>
      <trkpt lat="42.09486" lon="9.10719">
        <ele>1104</ele>
        <time>2021-07-05T12:43:07.667Z</time>
      </trkpt>
      <trkpt lat="42.09488" lon="9.10717">
        <ele>1103.6</ele>
        <time>2021-07-05T12:43:15.135Z</time>
      </trkpt>
      <trkpt lat="42.09487" lon="9.10717">
        <ele>1103.4</ele>
        <time>2021-07-05T12:43:20.192Z</time>
      </trkpt>
      <trkpt lat="42.09488" lon="9.10715">
        <ele>1103</ele>
        <time>2021-07-05T12:43:31.134Z</time>
      </trkpt>
      <trkpt lat="42.09489" lon="9.10712">
        <ele>1102.5</ele>
        <time>2021-07-05T12:43:36.136Z</time>
      </trkpt>
      <trkpt lat="42.0949" lon="9.10713">
        <ele>1103.5</ele>
        <time>2021-07-05T12:43:53.128Z</time>
      </trkpt>
      <trkpt lat="42.09493" lon="9.10712">
        <ele>1104.1</ele>
        <time>2021-07-05T12:43:58.139Z</time>
      </trkpt>
      <trkpt lat="42.09499" lon="9.1071">
        <ele>1105.2</ele>
        <time>2021-07-05T12:44:03.992Z</time>
      </trkpt>
      <trkpt lat="42.09505" lon="9.10708">
        <ele>1105.1</ele>
        <time>2021-07-05T12:44:09.141Z</time>
      </trkpt>
      <trkpt lat="42.0951" lon="9.10708">
        <ele>1105.6</ele>
        <time>2021-07-05T12:44:14.174Z</time>
      </trkpt>
      <trkpt lat="42.09519" lon="9.10705">
        <ele>1105.2</ele>
        <time>2021-07-05T12:44:19.807Z</time>
      </trkpt>
      <trkpt lat="42.09526" lon="9.10703">
        <ele>1104.9</ele>
        <time>2021-07-05T12:44:24.859Z</time>
      </trkpt>
      <trkpt lat="42.09533" lon="9.10703">
        <ele>1105</ele>
        <time>2021-07-05T12:44:30.145Z</time>
      </trkpt>
      <trkpt lat="42.09538" lon="9.107">
        <ele>1104.2</ele>
        <time>2021-07-05T12:44:35.795Z</time>
      </trkpt>
      <trkpt lat="42.09542" lon="9.10697">
        <ele>1103.6</ele>
        <time>2021-07-05T12:44:41.493Z</time>
      </trkpt>
      <trkpt lat="42.09546" lon="9.10699">
        <ele>1104.5</ele>
        <time>2021-07-05T12:44:46.614Z</time>
      </trkpt>
      <trkpt lat="42.09552" lon="9.10699">
        <ele>1105.2</ele>
        <time>2021-07-05T12:44:52.142Z</time>
      </trkpt>
      <trkpt lat="42.0956" lon="9.10701">
        <ele>1106.4</ele>
        <time>2021-07-05T12:44:57.451Z</time>
      </trkpt>
      <trkpt lat="42.09569" lon="9.10701">
        <ele>1107</ele>
        <time>2021-07-05T12:45:02.731Z</time>
      </trkpt>
      <trkpt lat="42.09574" lon="9.10704">
        <ele>1108.3</ele>
        <time>2021-07-05T12:45:07.867Z</time>
      </trkpt>
      <trkpt lat="42.09576" lon="9.10709">
        <ele>1110.2</ele>
        <time>2021-07-05T12:45:13.133Z</time>
      </trkpt>
      <trkpt lat="42.09577" lon="9.10712">
        <ele>1111.4</ele>
        <time>2021-07-05T12:45:18.134Z</time>
      </trkpt>
      <trkpt lat="42.09578" lon="9.10713">
        <ele>1111.7</ele>
        <time>2021-07-05T12:45:30.017Z</time>
      </trkpt>
      <trkpt lat="42.0958" lon="9.10713">
        <ele>1112.2</ele>
        <time>2021-07-05T12:45:35.137Z</time>
      </trkpt>
      <trkpt lat="42.09584" lon="9.10714">
        <ele>1112.5</ele>
        <time>2021-07-05T12:45:42.149Z</time>
      </trkpt>
      <trkpt lat="42.09584" lon="9.10713">
        <ele>1111.9</ele>
        <time>2021-07-05T12:46:17.910Z</time>
      </trkpt>
      <trkpt lat="42.09575" lon="9.10712">
        <ele>1111.2</ele>
        <time>2021-07-05T12:48:44.800Z</time>
      </trkpt>
      <trkpt lat="42.09578" lon="9.10714">
        <ele>1112.1</ele>
        <time>2021-07-05T12:48:50.118Z</time>
      </trkpt>
      <trkpt lat="42.09579" lon="9.10719">
        <ele>1114.3</ele>
        <time>2021-07-05T12:48:57.132Z</time>
      </trkpt>
      <trkpt lat="42.09583" lon="9.10726">
        <ele>1117.1</ele>
        <time>2021-07-05T12:49:10.051Z</time>
      </trkpt>
      <trkpt lat="42.09586" lon="9.10732">
        <ele>1118.2</ele>
        <time>2021-07-05T12:49:19.145Z</time>
      </trkpt>
      <trkpt lat="42.09585" lon="9.10738">
        <ele>1121</ele>
        <time>2021-07-05T12:49:48.127Z</time>
      </trkpt>
      <trkpt lat="42.09589" lon="9.10744">
        <ele>1121.4</ele>
        <time>2021-07-05T12:49:53.326Z</time>
      </trkpt>
      <trkpt lat="42.09593" lon="9.10747">
        <ele>1120.7</ele>
        <time>2021-07-05T12:50:15.062Z</time>
      </trkpt>
      <trkpt lat="42.09601" lon="9.10756">
        <ele>1120.1</ele>
        <time>2021-07-05T12:50:24.143Z</time>
      </trkpt>
      <trkpt lat="42.09604" lon="9.10761">
        <ele>1119.9</ele>
        <time>2021-07-05T12:50:29.847Z</time>
      </trkpt>
      <trkpt lat="42.09606" lon="9.10765">
        <ele>1120.5</ele>
        <time>2021-07-05T12:50:35.144Z</time>
      </trkpt>
      <trkpt lat="42.09606" lon="9.10776">
        <ele>1124.1</ele>
        <time>2021-07-05T12:50:44.971Z</time>
      </trkpt>
      <trkpt lat="42.09609" lon="9.10781">
        <ele>1124.6</ele>
        <time>2021-07-05T12:50:50.200Z</time>
      </trkpt>
      <trkpt lat="42.09613" lon="9.10784">
        <ele>1123.8</ele>
        <time>2021-07-05T12:50:59.800Z</time>
      </trkpt>
      <trkpt lat="42.09622" lon="9.10793">
        <ele>1123.5</ele>
        <time>2021-07-05T12:51:08.536Z</time>
      </trkpt>
      <trkpt lat="42.09626" lon="9.108">
        <ele>1124.4</ele>
        <time>2021-07-05T12:51:13.848Z</time>
      </trkpt>
      <trkpt lat="42.09629" lon="9.10805">
        <ele>1125.3</ele>
        <time>2021-07-05T12:51:19.138Z</time>
      </trkpt>
      <trkpt lat="42.09633" lon="9.1081">
        <ele>1125.7</ele>
        <time>2021-07-05T12:51:24.556Z</time>
      </trkpt>
      <trkpt lat="42.09636" lon="9.10813">
        <ele>1125.4</ele>
        <time>2021-07-05T12:51:30.133Z</time>
      </trkpt>
      <trkpt lat="42.09646" lon="9.10826">
        <ele>1127</ele>
        <time>2021-07-05T12:51:54.841Z</time>
      </trkpt>
      <trkpt lat="42.0965" lon="9.10833">
        <ele>1128.3</ele>
        <time>2021-07-05T12:52:00.141Z</time>
      </trkpt>
      <trkpt lat="42.09659" lon="9.10841">
        <ele>1129.3</ele>
        <time>2021-07-05T12:52:09.135Z</time>
      </trkpt>
      <trkpt lat="42.0966" lon="9.10842">
        <ele>1129.4</ele>
        <time>2021-07-05T12:52:14.165Z</time>
      </trkpt>
      <trkpt lat="42.09681" lon="9.10855">
        <ele>1130.2</ele>
        <time>2021-07-05T12:52:47.130Z</time>
      </trkpt>
      <trkpt lat="42.09686" lon="9.10856">
        <ele>1129.9</ele>
        <time>2021-07-05T12:52:52.531Z</time>
      </trkpt>
      <trkpt lat="42.09691" lon="9.10858">
        <ele>1129.8</ele>
        <time>2021-07-05T12:52:58.111Z</time>
      </trkpt>
      <trkpt lat="42.09697" lon="9.10878">
        <ele>1137.8</ele>
        <time>2021-07-05T12:53:19.133Z</time>
      </trkpt>
      <trkpt lat="42.09699" lon="9.10879">
        <ele>1138</ele>
        <time>2021-07-05T12:53:25.139Z</time>
      </trkpt>
      <trkpt lat="42.09706" lon="9.10877">
        <ele>1135.5</ele>
        <time>2021-07-05T12:54:00.143Z</time>
      </trkpt>
      <trkpt lat="42.0971" lon="9.10873">
        <ele>1132.8</ele>
        <time>2021-07-05T12:54:06.145Z</time>
      </trkpt>
      <trkpt lat="42.09713" lon="9.10888">
        <ele>1138.6</ele>
        <time>2021-07-05T12:56:10.136Z</time>
      </trkpt>
      <trkpt lat="42.09713" lon="9.10885">
        <ele>1137.5</ele>
        <time>2021-07-05T12:56:35.129Z</time>
      </trkpt>
      <trkpt lat="42.09715" lon="9.10886">
        <ele>1137.6</ele>
        <time>2021-07-05T12:56:40.133Z</time>
      </trkpt>
      <trkpt lat="42.0972" lon="9.10876">
        <ele>1132</ele>
        <time>2021-07-05T12:56:53.131Z</time>
      </trkpt>
      <trkpt lat="42.09726" lon="9.1087">
        <ele>1128</ele>
        <time>2021-07-05T12:56:58.716Z</time>
      </trkpt>
      <trkpt lat="42.09731" lon="9.10865">
        <ele>1124.4</ele>
        <time>2021-07-05T12:57:04.136Z</time>
      </trkpt>
      <trkpt lat="42.09735" lon="9.10865">
        <ele>1123.7</ele>
        <time>2021-07-05T12:57:10.121Z</time>
      </trkpt>
      <trkpt lat="42.09736" lon="9.10863">
        <ele>1122.7</ele>
        <time>2021-07-05T12:57:15.135Z</time>
      </trkpt>
      <trkpt lat="42.09738" lon="9.10863">
        <ele>1122.2</ele>
        <time>2021-07-05T12:57:20.185Z</time>
      </trkpt>
      <trkpt lat="42.09744" lon="9.10866">
        <ele>1122.5</ele>
        <time>2021-07-05T12:57:25.501Z</time>
      </trkpt>
      <trkpt lat="42.0975" lon="9.10874">
        <ele>1124.8</ele>
        <time>2021-07-05T12:57:31.752Z</time>
      </trkpt>
      <trkpt lat="42.09754" lon="9.10882">
        <ele>1127.8</ele>
        <time>2021-07-05T12:57:36.792Z</time>
      </trkpt>
      <trkpt lat="42.09757" lon="9.10887">
        <ele>1129.9</ele>
        <time>2021-07-05T12:57:41.794Z</time>
      </trkpt>
      <trkpt lat="42.09758" lon="9.10891">
        <ele>1131.4</ele>
        <time>2021-07-05T12:57:47.110Z</time>
      </trkpt>
      <trkpt lat="42.09758" lon="9.10895">
        <ele>1133.1</ele>
        <time>2021-07-05T12:57:57.993Z</time>
      </trkpt>
      <trkpt lat="42.09769" lon="9.10897">
        <ele>1133.3</ele>
        <time>2021-07-05T12:58:47.131Z</time>
      </trkpt>
      <trkpt lat="42.09769" lon="9.10896">
        <ele>1132.8</ele>
        <time>2021-07-05T12:58:52.613Z</time>
      </trkpt>
      <trkpt lat="42.09774" lon="9.10893">
        <ele>1131.4</ele>
        <time>2021-07-05T12:59:05.133Z</time>
      </trkpt>
      <trkpt lat="42.09779" lon="9.1089">
        <ele>1129.7</ele>
        <time>2021-07-05T12:59:10.134Z</time>
      </trkpt>
      <trkpt lat="42.09785" lon="9.10886">
        <ele>1127.4</ele>
        <time>2021-07-05T12:59:19.138Z</time>
      </trkpt>
      <trkpt lat="42.09802" lon="9.10871">
        <ele>1118.7</ele>
        <time>2021-07-05T12:59:39.947Z</time>
      </trkpt>
      <trkpt lat="42.09806" lon="9.10867">
        <ele>1115.9</ele>
        <time>2021-07-05T12:59:45.138Z</time>
      </trkpt>
      <trkpt lat="42.09811" lon="9.10863">
        <ele>1113.4</ele>
        <time>2021-07-05T12:59:50.493Z</time>
      </trkpt>
      <trkpt lat="42.09818" lon="9.10866">
        <ele>1114.3</ele>
        <time>2021-07-05T12:59:57.135Z</time>
      </trkpt>
      <trkpt lat="42.0982" lon="9.10869">
        <ele>1115.8</ele>
        <time>2021-07-05T13:00:02.191Z</time>
      </trkpt>
      <trkpt lat="42.09824" lon="9.10873">
        <ele>1117.9</ele>
        <time>2021-07-05T13:00:07.614Z</time>
      </trkpt>
      <trkpt lat="42.09829" lon="9.10879">
        <ele>1120.7</ele>
        <time>2021-07-05T13:00:13.131Z</time>
      </trkpt>
      <trkpt lat="42.09835" lon="9.10887">
        <ele>1124.9</ele>
        <time>2021-07-05T13:00:18.777Z</time>
      </trkpt>
      <trkpt lat="42.0984" lon="9.10893">
        <ele>1128.8</ele>
        <time>2021-07-05T13:00:24.143Z</time>
      </trkpt>
      <trkpt lat="42.09845" lon="9.10898">
        <ele>1132.6</ele>
        <time>2021-07-05T13:00:29.616Z</time>
      </trkpt>
      <trkpt lat="42.0985" lon="9.10903">
        <ele>1136</ele>
        <time>2021-07-05T13:00:35.134Z</time>
      </trkpt>
      <trkpt lat="42.09855" lon="9.10903">
        <ele>1136.6</ele>
        <time>2021-07-05T13:00:41.129Z</time>
      </trkpt>
      <trkpt lat="42.09857" lon="9.10904">
        <ele>1137.5</ele>
        <time>2021-07-05T13:00:46.716Z</time>
      </trkpt>
      <trkpt lat="42.09858" lon="9.10904">
        <ele>1137.2</ele>
        <time>2021-07-05T13:00:52.134Z</time>
      </trkpt>
      <trkpt lat="42.0986" lon="9.10898">
        <ele>1134.6</ele>
        <time>2021-07-05T13:01:02.984Z</time>
      </trkpt>
      <trkpt lat="42.09861" lon="9.10891">
        <ele>1131.1</ele>
        <time>2021-07-05T13:01:08.003Z</time>
      </trkpt>
      <trkpt lat="42.09863" lon="9.10884">
        <ele>1127.9</ele>
        <time>2021-07-05T13:01:13.133Z</time>
      </trkpt>
      <trkpt lat="42.09866" lon="9.10877">
        <ele>1124.9</ele>
        <time>2021-07-05T13:01:18.135Z</time>
      </trkpt>
      <trkpt lat="42.09869" lon="9.10871">
        <ele>1122.5</ele>
        <time>2021-07-05T13:01:23.136Z</time>
      </trkpt>
      <trkpt lat="42.09872" lon="9.10869">
        <ele>1122.2</ele>
        <time>2021-07-05T13:01:28.640Z</time>
      </trkpt>
      <trkpt lat="42.09874" lon="9.10867">
        <ele>1121.6</ele>
        <time>2021-07-05T13:01:33.690Z</time>
      </trkpt>
      <trkpt lat="42.09879" lon="9.10867">
        <ele>1122</ele>
        <time>2021-07-05T13:01:40.124Z</time>
      </trkpt>
      <trkpt lat="42.09886" lon="9.10868">
        <ele>1123.9</ele>
        <time>2021-07-05T13:01:55.145Z</time>
      </trkpt>
      <trkpt lat="42.09892" lon="9.10867">
        <ele>1124.9</ele>
        <time>2021-07-05T13:02:07.130Z</time>
      </trkpt>
      <trkpt lat="42.09896" lon="9.10864">
        <ele>1124.3</ele>
        <time>2021-07-05T13:02:12.131Z</time>
      </trkpt>
      <trkpt lat="42.09903" lon="9.10858">
        <ele>1122.9</ele>
        <time>2021-07-05T13:02:17.728Z</time>
      </trkpt>
      <trkpt lat="42.09907" lon="9.10856">
        <ele>1122.9</ele>
        <time>2021-07-05T13:02:22.762Z</time>
      </trkpt>
      <trkpt lat="42.09912" lon="9.10855">
        <ele>1123.5</ele>
        <time>2021-07-05T13:02:27.913Z</time>
      </trkpt>
      <trkpt lat="42.09912" lon="9.10842">
        <ele>1117.4</ele>
        <time>2021-07-05T13:02:54.968Z</time>
      </trkpt>
      <trkpt lat="42.09908" lon="9.10831">
        <ele>1112</ele>
        <time>2021-07-05T13:03:00.133Z</time>
      </trkpt>
      <trkpt lat="42.09913" lon="9.10819">
        <ele>1108.1</ele>
        <time>2021-07-05T13:03:09.422Z</time>
      </trkpt>
      <trkpt lat="42.09915" lon="9.10811">
        <ele>1105.3</ele>
        <time>2021-07-05T13:03:14.636Z</time>
      </trkpt>
      <trkpt lat="42.0992" lon="9.10803">
        <ele>1102.8</ele>
        <time>2021-07-05T13:03:19.753Z</time>
      </trkpt>
      <trkpt lat="42.09925" lon="9.10792">
        <ele>1098.8</ele>
        <time>2021-07-05T13:03:24.884Z</time>
      </trkpt>
      <trkpt lat="42.0993" lon="9.1079">
        <ele>1098.4</ele>
        <time>2021-07-05T13:03:30.136Z</time>
      </trkpt>
      <trkpt lat="42.09932" lon="9.10792">
        <ele>1099.3</ele>
        <time>2021-07-05T13:03:36.010Z</time>
      </trkpt>
      <trkpt lat="42.09932" lon="9.10791">
        <ele>1098.7</ele>
        <time>2021-07-05T13:04:04.124Z</time>
      </trkpt>
      <trkpt lat="42.09932" lon="9.10785">
        <ele>1096.2</ele>
        <time>2021-07-05T13:04:09.431Z</time>
      </trkpt>
      <trkpt lat="42.09932" lon="9.10786">
        <ele>1096.8</ele>
        <time>2021-07-05T13:04:16.606Z</time>
      </trkpt>
      <trkpt lat="42.09931" lon="9.10788">
        <ele>1097.3</ele>
        <time>2021-07-05T13:04:22.122Z</time>
      </trkpt>
      <trkpt lat="42.0993" lon="9.1079">
        <ele>1098.2</ele>
        <time>2021-07-05T13:04:28.137Z</time>
      </trkpt>
      <trkpt lat="42.09931" lon="9.10788">
        <ele>1097.4</ele>
        <time>2021-07-05T13:05:20.187Z</time>
      </trkpt>
      <trkpt lat="42.09932" lon="9.10779">
        <ele>1093.9</ele>
        <time>2021-07-05T13:05:30.135Z</time>
      </trkpt>
      <trkpt lat="42.09933" lon="9.10781">
        <ele>1094.7</ele>
        <time>2021-07-05T13:05:46.141Z</time>
      </trkpt>
      <trkpt lat="42.09933" lon="9.10783">
        <ele>1095.4</ele>
        <time>2021-07-05T13:05:57.132Z</time>
      </trkpt>
      <trkpt lat="42.09933" lon="9.10787">
        <ele>1097.4</ele>
        <time>2021-07-05T13:06:24.069Z</time>
      </trkpt>
      <trkpt lat="42.09933" lon="9.1079">
        <ele>1098.4</ele>
        <time>2021-07-05T13:06:39.791Z</time>
      </trkpt>
      <trkpt lat="42.09956" lon="9.10794">
        <ele>1102.3</ele>
        <time>2021-07-05T13:06:55.054Z</time>
      </trkpt>
      <trkpt lat="42.0996" lon="9.10796">
        <ele>1103.5</ele>
        <time>2021-07-05T13:07:00.130Z</time>
      </trkpt>
      <trkpt lat="42.09964" lon="9.10798">
        <ele>1104.7</ele>
        <time>2021-07-05T13:07:06.703Z</time>
      </trkpt>
      <trkpt lat="42.09968" lon="9.108">
        <ele>1106.2</ele>
        <time>2021-07-05T13:07:11.736Z</time>
      </trkpt>
      <trkpt lat="42.09986" lon="9.10822">
        <ele>1119.4</ele>
        <time>2021-07-05T13:07:32.977Z</time>
      </trkpt>
      <trkpt lat="42.09987" lon="9.1083">
        <ele>1123.9</ele>
        <time>2021-07-05T13:07:38.194Z</time>
      </trkpt>
      <trkpt lat="42.09987" lon="9.10834">
        <ele>1126.5</ele>
        <time>2021-07-05T13:07:43.812Z</time>
      </trkpt>
      <trkpt lat="42.09989" lon="9.10835">
        <ele>1127.2</ele>
        <time>2021-07-05T13:07:49.141Z</time>
      </trkpt>
      <trkpt lat="42.09993" lon="9.10834">
        <ele>1127.1</ele>
        <time>2021-07-05T13:07:54.841Z</time>
      </trkpt>
      <trkpt lat="42.09998" lon="9.1083">
        <ele>1126</ele>
        <time>2021-07-05T13:08:00.135Z</time>
      </trkpt>
      <trkpt lat="42.10025" lon="9.10821">
        <ele>1123.9</ele>
        <time>2021-07-05T13:08:25.130Z</time>
      </trkpt>
      <trkpt lat="42.10035" lon="9.10819">
        <ele>1124.1</ele>
        <time>2021-07-05T13:08:31.875Z</time>
      </trkpt>
      <trkpt lat="42.10041" lon="9.10818">
        <ele>1124.3</ele>
        <time>2021-07-05T13:08:37.081Z</time>
      </trkpt>
      <trkpt lat="42.10046" lon="9.10814">
        <ele>1122.9</ele>
        <time>2021-07-05T13:08:42.130Z</time>
      </trkpt>
      <trkpt lat="42.10053" lon="9.10813">
        <ele>1123.1</ele>
        <time>2021-07-05T13:08:47.132Z</time>
      </trkpt>
      <trkpt lat="42.10064" lon="9.10809">
        <ele>1122.5</ele>
        <time>2021-07-05T13:08:52.970Z</time>
      </trkpt>
      <trkpt lat="42.10074" lon="9.10807">
        <ele>1122.7</ele>
        <time>2021-07-05T13:08:58.127Z</time>
      </trkpt>
      <trkpt lat="42.10082" lon="9.10806">
        <ele>1123.1</ele>
        <time>2021-07-05T13:09:03.135Z</time>
      </trkpt>
      <trkpt lat="42.10088" lon="9.10801">
        <ele>1120.9</ele>
        <time>2021-07-05T13:09:08.202Z</time>
      </trkpt>
      <trkpt lat="42.10094" lon="9.10796">
        <ele>1119.2</ele>
        <time>2021-07-05T13:09:13.405Z</time>
      </trkpt>
      <trkpt lat="42.10099" lon="9.10787">
        <ele>1115.1</ele>
        <time>2021-07-05T13:09:18.775Z</time>
      </trkpt>
      <trkpt lat="42.1011" lon="9.10781">
        <ele>1112.8</ele>
        <time>2021-07-05T13:09:24.137Z</time>
      </trkpt>
      <trkpt lat="42.1012" lon="9.10777">
        <ele>1111.2</ele>
        <time>2021-07-05T13:09:29.806Z</time>
      </trkpt>
      <trkpt lat="42.10123" lon="9.10779">
        <ele>1112.4</ele>
        <time>2021-07-05T13:09:34.808Z</time>
      </trkpt>
      <trkpt lat="42.10129" lon="9.1078">
        <ele>1113.4</ele>
        <time>2021-07-05T13:09:40.126Z</time>
      </trkpt>
      <trkpt lat="42.10134" lon="9.10781">
        <ele>1114.5</ele>
        <time>2021-07-05T13:09:45.126Z</time>
      </trkpt>
      <trkpt lat="42.10139" lon="9.10784">
        <ele>1116.4</ele>
        <time>2021-07-05T13:09:50.758Z</time>
      </trkpt>
      <trkpt lat="42.10143" lon="9.10785">
        <ele>1117</ele>
        <time>2021-07-05T13:09:55.791Z</time>
      </trkpt>
      <trkpt lat="42.10151" lon="9.10781">
        <ele>1115.6</ele>
        <time>2021-07-05T13:10:01.005Z</time>
      </trkpt>
      <trkpt lat="42.10163" lon="9.10776">
        <ele>1114</ele>
        <time>2021-07-05T13:10:06.127Z</time>
      </trkpt>
      <trkpt lat="42.10176" lon="9.10773">
        <ele>1112.8</ele>
        <time>2021-07-05T13:10:11.593Z</time>
      </trkpt>
      <trkpt lat="42.10183" lon="9.10773">
        <ele>1112.5</ele>
        <time>2021-07-05T13:10:16.880Z</time>
      </trkpt>
      <trkpt lat="42.10194" lon="9.10777">
        <ele>1114.2</ele>
        <time>2021-07-05T13:10:22.032Z</time>
      </trkpt>
      <trkpt lat="42.10205" lon="9.10782">
        <ele>1116.5</ele>
        <time>2021-07-05T13:10:27.128Z</time>
      </trkpt>
      <trkpt lat="42.10211" lon="9.10784">
        <ele>1116.9</ele>
        <time>2021-07-05T13:10:32.310Z</time>
      </trkpt>
      <trkpt lat="42.10214" lon="9.10783">
        <ele>1116.5</ele>
        <time>2021-07-05T13:10:37.780Z</time>
      </trkpt>
      <trkpt lat="42.10216" lon="9.10786">
        <ele>1118</ele>
        <time>2021-07-05T13:10:42.834Z</time>
      </trkpt>
      <trkpt lat="42.10218" lon="9.10794">
        <ele>1120.8</ele>
        <time>2021-07-05T13:10:54.147Z</time>
      </trkpt>
      <trkpt lat="42.10228" lon="9.10799">
        <ele>1122.3</ele>
        <time>2021-07-05T13:11:26.208Z</time>
      </trkpt>
      <trkpt lat="42.10224" lon="9.10802">
        <ele>1123.7</ele>
        <time>2021-07-05T13:12:36.139Z</time>
      </trkpt>
      <trkpt lat="42.10223" lon="9.10801">
        <ele>1123.7</ele>
        <time>2021-07-05T13:13:30.144Z</time>
      </trkpt>
      <trkpt lat="42.1023" lon="9.10801">
        <ele>1123.2</ele>
        <time>2021-07-05T13:13:40.123Z</time>
      </trkpt>
      <trkpt lat="42.10229" lon="9.10798">
        <ele>1122</ele>
        <time>2021-07-05T13:13:47.139Z</time>
      </trkpt>
      <trkpt lat="42.10227" lon="9.10799">
        <ele>1122.6</ele>
        <time>2021-07-05T13:13:53.110Z</time>
      </trkpt>
      <trkpt lat="42.10226" lon="9.108">
        <ele>1122.9</ele>
        <time>2021-07-05T13:14:14.080Z</time>
      </trkpt>
      <trkpt lat="42.10222" lon="9.10797">
        <ele>1122.1</ele>
        <time>2021-07-05T13:16:38.133Z</time>
      </trkpt>
      <trkpt lat="42.10221" lon="9.10795">
        <ele>1121.4</ele>
        <time>2021-07-05T13:17:00.132Z</time>
      </trkpt>
      <trkpt lat="42.10222" lon="9.10796">
        <ele>1121.4</ele>
        <time>2021-07-05T13:17:10.151Z</time>
      </trkpt>
      <trkpt lat="42.10221" lon="9.10794">
        <ele>1120.8</ele>
        <time>2021-07-05T13:17:17.111Z</time>
      </trkpt>
      <trkpt lat="42.10233" lon="9.10803">
        <ele>1123.6</ele>
        <time>2021-07-05T13:20:34.859Z</time>
      </trkpt>
      <trkpt lat="42.10234" lon="9.10797">
        <ele>1121.4</ele>
        <time>2021-07-05T13:20:40.125Z</time>
      </trkpt>
      <trkpt lat="42.10236" lon="9.10789">
        <ele>1118.2</ele>
        <time>2021-07-05T13:20:46.601Z</time>
      </trkpt>
      <trkpt lat="42.10241" lon="9.10787">
        <ele>1117</ele>
        <time>2021-07-05T13:20:51.662Z</time>
      </trkpt>
      <trkpt lat="42.1025" lon="9.10789">
        <ele>1117.5</ele>
        <time>2021-07-05T13:20:59.913Z</time>
      </trkpt>
      <trkpt lat="42.10255" lon="9.10788">
        <ele>1117.1</ele>
        <time>2021-07-05T13:21:05.130Z</time>
      </trkpt>
      <trkpt lat="42.10258" lon="9.10785">
        <ele>1116.2</ele>
        <time>2021-07-05T13:21:10.146Z</time>
      </trkpt>
      <trkpt lat="42.10261" lon="9.10779">
        <ele>1114.3</ele>
        <time>2021-07-05T13:21:19.486Z</time>
      </trkpt>
      <trkpt lat="42.10265" lon="9.10774">
        <ele>1112.8</ele>
        <time>2021-07-05T13:21:30.044Z</time>
      </trkpt>
      <trkpt lat="42.1028" lon="9.10771">
        <ele>1112.3</ele>
        <time>2021-07-05T13:21:50.138Z</time>
      </trkpt>
      <trkpt lat="42.10284" lon="9.10768">
        <ele>1111.6</ele>
        <time>2021-07-05T13:21:57.142Z</time>
      </trkpt>
      <trkpt lat="42.10285" lon="9.10761">
        <ele>1109.8</ele>
        <time>2021-07-05T13:22:04.804Z</time>
      </trkpt>
      <trkpt lat="42.10285" lon="9.10749">
        <ele>1106.6</ele>
        <time>2021-07-05T13:22:13.844Z</time>
      </trkpt>
      <trkpt lat="42.10286" lon="9.1074">
        <ele>1104.8</ele>
        <time>2021-07-05T13:22:19.140Z</time>
      </trkpt>
      <trkpt lat="42.10287" lon="9.10732">
        <ele>1102.9</ele>
        <time>2021-07-05T13:22:24.145Z</time>
      </trkpt>
      <trkpt lat="42.1029" lon="9.10725">
        <ele>1101.9</ele>
        <time>2021-07-05T13:22:29.624Z</time>
      </trkpt>
      <trkpt lat="42.10296" lon="9.10719">
        <ele>1101.4</ele>
        <time>2021-07-05T13:22:34.881Z</time>
      </trkpt>
      <trkpt lat="42.10302" lon="9.10716">
        <ele>1101.7</ele>
        <time>2021-07-05T13:22:40.126Z</time>
      </trkpt>
      <trkpt lat="42.10307" lon="9.10714">
        <ele>1102.3</ele>
        <time>2021-07-05T13:22:45.292Z</time>
      </trkpt>
      <trkpt lat="42.10306" lon="9.10711">
        <ele>1101.6</ele>
        <time>2021-07-05T13:22:52.136Z</time>
      </trkpt>
      <trkpt lat="42.10308" lon="9.10715">
        <ele>1102.7</ele>
        <time>2021-07-05T13:23:20.632Z</time>
      </trkpt>
      <trkpt lat="42.10311" lon="9.10716">
        <ele>1103.3</ele>
        <time>2021-07-05T13:23:29.819Z</time>
      </trkpt>
      <trkpt lat="42.10316" lon="9.10716">
        <ele>1104.2</ele>
        <time>2021-07-05T13:23:35.473Z</time>
      </trkpt>
      <trkpt lat="42.10323" lon="9.10719">
        <ele>1105.7</ele>
        <time>2021-07-05T13:23:42.124Z</time>
      </trkpt>
      <trkpt lat="42.10327" lon="9.10723">
        <ele>1106.8</ele>
        <time>2021-07-05T13:23:47.606Z</time>
      </trkpt>
      <trkpt lat="42.1033" lon="9.10728">
        <ele>1108</ele>
        <time>2021-07-05T13:23:52.974Z</time>
      </trkpt>
      <trkpt lat="42.10331" lon="9.10735">
        <ele>1108.9</ele>
        <time>2021-07-05T13:23:58.138Z</time>
      </trkpt>
      <trkpt lat="42.10334" lon="9.10736">
        <ele>1109.2</ele>
        <time>2021-07-05T13:24:04.149Z</time>
      </trkpt>
      <trkpt lat="42.10332" lon="9.10747">
        <ele>1110.5</ele>
        <time>2021-07-05T13:24:40.130Z</time>
      </trkpt>
      <trkpt lat="42.10332" lon="9.10749">
        <ele>1110.8</ele>
        <time>2021-07-05T13:24:47.701Z</time>
      </trkpt>
      <trkpt lat="42.10331" lon="9.10754">
        <ele>1111.5</ele>
        <time>2021-07-05T13:24:53.129Z</time>
      </trkpt>
      <trkpt lat="42.1033" lon="9.10758">
        <ele>1112</ele>
        <time>2021-07-05T13:24:58.596Z</time>
      </trkpt>
      <trkpt lat="42.10329" lon="9.10762">
        <ele>1112.5</ele>
        <time>2021-07-05T13:25:03.598Z</time>
      </trkpt>
      <trkpt lat="42.10326" lon="9.10765">
        <ele>1112.9</ele>
        <time>2021-07-05T13:25:09.070Z</time>
      </trkpt>
      <trkpt lat="42.10323" lon="9.10773">
        <ele>1114.2</ele>
        <time>2021-07-05T13:25:14.928Z</time>
      </trkpt>
      <trkpt lat="42.10323" lon="9.10785">
        <ele>1116.4</ele>
        <time>2021-07-05T13:25:29.816Z</time>
      </trkpt>
      <trkpt lat="42.10333" lon="9.10805">
        <ele>1119.6</ele>
        <time>2021-07-05T13:25:57.455Z</time>
      </trkpt>
      <trkpt lat="42.10337" lon="9.1081">
        <ele>1119.4</ele>
        <time>2021-07-05T13:26:03.000Z</time>
      </trkpt>
      <trkpt lat="42.10338" lon="9.10812">
        <ele>1119.5</ele>
        <time>2021-07-05T13:26:08.157Z</time>
      </trkpt>
      <trkpt lat="42.10338" lon="9.10814">
        <ele>1119.9</ele>
        <time>2021-07-05T13:26:13.630Z</time>
      </trkpt>
      <trkpt lat="42.10341" lon="9.10819">
        <ele>1119.9</ele>
        <time>2021-07-05T13:26:24.708Z</time>
      </trkpt>
      <trkpt lat="42.10349" lon="9.10826">
        <ele>1118.7</ele>
        <time>2021-07-05T13:26:39.815Z</time>
      </trkpt>
      <trkpt lat="42.10353" lon="9.10829">
        <ele>1118.2</ele>
        <time>2021-07-05T13:26:45.135Z</time>
      </trkpt>
      <trkpt lat="42.1045" lon="9.10903">
        <ele>1111.2</ele>
        <time>2021-07-05T13:30:00.143Z</time>
      </trkpt>
      <trkpt lat="42.10462" lon="9.10896">
        <ele>1105.4</ele>
        <time>2021-07-05T13:30:09.127Z</time>
      </trkpt>
      <trkpt lat="42.10464" lon="9.10888">
        <ele>1102.2</ele>
        <time>2021-07-05T13:30:14.526Z</time>
      </trkpt>
      <trkpt lat="42.10468" lon="9.10888">
        <ele>1101.1</ele>
        <time>2021-07-05T13:30:19.645Z</time>
      </trkpt>
      <trkpt lat="42.1047" lon="9.10891">
        <ele>1101.7</ele>
        <time>2021-07-05T13:30:25.130Z</time>
      </trkpt>
      <trkpt lat="42.10472" lon="9.10895">
        <ele>1101.9</ele>
        <time>2021-07-05T13:30:30.830Z</time>
      </trkpt>
      <trkpt lat="42.10478" lon="9.109">
        <ele>1101.9</ele>
        <time>2021-07-05T13:30:36.131Z</time>
      </trkpt>
      <trkpt lat="42.10483" lon="9.10903">
        <ele>1101.3</ele>
        <time>2021-07-05T13:30:42.128Z</time>
      </trkpt>
      <trkpt lat="42.10491" lon="9.10911">
        <ele>1101.8</ele>
        <time>2021-07-05T13:30:50.415Z</time>
      </trkpt>
      <trkpt lat="42.10497" lon="9.10916">
        <ele>1101.7</ele>
        <time>2021-07-05T13:30:58.068Z</time>
      </trkpt>
      <trkpt lat="42.10505" lon="9.10919">
        <ele>1100.1</ele>
        <time>2021-07-05T13:31:03.116Z</time>
      </trkpt>
      <trkpt lat="42.10512" lon="9.10923">
        <ele>1098.7</ele>
        <time>2021-07-05T13:31:08.130Z</time>
      </trkpt>
      <trkpt lat="42.10518" lon="9.10931">
        <ele>1099.2</ele>
        <time>2021-07-05T13:31:15.083Z</time>
      </trkpt>
      <trkpt lat="42.10521" lon="9.10942">
        <ele>1101.2</ele>
        <time>2021-07-05T13:31:24.138Z</time>
      </trkpt>
      <trkpt lat="42.10519" lon="9.10945">
        <ele>1102.6</ele>
        <time>2021-07-05T13:31:29.141Z</time>
      </trkpt>
      <trkpt lat="42.10548" lon="9.11">
        <ele>1109.2</ele>
        <time>2021-07-05T13:33:19.930Z</time>
      </trkpt>
      <trkpt lat="42.10553" lon="9.10995">
        <ele>1106.5</ele>
        <time>2021-07-05T13:33:25.120Z</time>
      </trkpt>
      <trkpt lat="42.10572" lon="9.10992">
        <ele>1100.5</ele>
        <time>2021-07-05T13:33:39.834Z</time>
      </trkpt>
      <trkpt lat="42.10581" lon="9.1099">
        <ele>1097.6</ele>
        <time>2021-07-05T13:33:44.837Z</time>
      </trkpt>
      <trkpt lat="42.10586" lon="9.10987">
        <ele>1096.1</ele>
        <time>2021-07-05T13:33:50.154Z</time>
      </trkpt>
      <trkpt lat="42.10593" lon="9.10987">
        <ele>1096</ele>
        <time>2021-07-05T13:33:57.187Z</time>
      </trkpt>
      <trkpt lat="42.10595" lon="9.10984">
        <ele>1095</ele>
        <time>2021-07-05T13:34:02.802Z</time>
      </trkpt>
      <trkpt lat="42.10599" lon="9.10982">
        <ele>1094.4</ele>
        <time>2021-07-05T13:34:08.143Z</time>
      </trkpt>
      <trkpt lat="42.10603" lon="9.10981">
        <ele>1094.1</ele>
        <time>2021-07-05T13:34:14.142Z</time>
      </trkpt>
      <trkpt lat="42.10615" lon="9.10977">
        <ele>1092.8</ele>
        <time>2021-07-05T13:34:30.094Z</time>
      </trkpt>
      <trkpt lat="42.10626" lon="9.10979">
        <ele>1093.4</ele>
        <time>2021-07-05T13:34:40.127Z</time>
      </trkpt>
      <trkpt lat="42.10632" lon="9.10981">
        <ele>1093.8</ele>
        <time>2021-07-05T13:34:45.128Z</time>
      </trkpt>
      <trkpt lat="42.10637" lon="9.10983">
        <ele>1094.7</ele>
        <time>2021-07-05T13:34:50.146Z</time>
      </trkpt>
      <trkpt lat="42.10643" lon="9.10981">
        <ele>1093.9</ele>
        <time>2021-07-05T13:34:55.814Z</time>
      </trkpt>
      <trkpt lat="42.10648" lon="9.10979">
        <ele>1093.4</ele>
        <time>2021-07-05T13:35:01.014Z</time>
      </trkpt>
      <trkpt lat="42.10654" lon="9.10979">
        <ele>1093.2</ele>
        <time>2021-07-05T13:35:06.845Z</time>
      </trkpt>
      <trkpt lat="42.10658" lon="9.1098">
        <ele>1093.5</ele>
        <time>2021-07-05T13:35:11.984Z</time>
      </trkpt>
      <trkpt lat="42.10661" lon="9.10982">
        <ele>1094.2</ele>
        <time>2021-07-05T13:35:17.133Z</time>
      </trkpt>
      <trkpt lat="42.10685" lon="9.10997">
        <ele>1096.2</ele>
        <time>2021-07-05T13:35:49.121Z</time>
      </trkpt>
      <trkpt lat="42.10694" lon="9.11">
        <ele>1095.3</ele>
        <time>2021-07-05T13:35:54.138Z</time>
      </trkpt>
      <trkpt lat="42.10702" lon="9.11007">
        <ele>1096.3</ele>
        <time>2021-07-05T13:35:59.710Z</time>
      </trkpt>
      <trkpt lat="42.10706" lon="9.11012">
        <ele>1097.5</ele>
        <time>2021-07-05T13:36:04.857Z</time>
      </trkpt>
      <trkpt lat="42.1071" lon="9.11017">
        <ele>1098.4</ele>
        <time>2021-07-05T13:36:09.957Z</time>
      </trkpt>
      <trkpt lat="42.10714" lon="9.11024">
        <ele>1099.6</ele>
        <time>2021-07-05T13:36:15.295Z</time>
      </trkpt>
      <trkpt lat="42.10718" lon="9.1103">
        <ele>1101</ele>
        <time>2021-07-05T13:36:20.912Z</time>
      </trkpt>
      <trkpt lat="42.10719" lon="9.11037">
        <ele>1103</ele>
        <time>2021-07-05T13:36:26.795Z</time>
      </trkpt>
      <trkpt lat="42.10722" lon="9.11042">
        <ele>1103.9</ele>
        <time>2021-07-05T13:36:31.885Z</time>
      </trkpt>
    </trkseg>
  </trk>
</gpx>